PWSweather.com
Personal Weather Stations
Station Observations
KM01CL
Kitemaniak 01, Castiglione Del LagoIT 06061

Kitemaniak 01Castiglione Del LagoIT 06061

Lat: 43.133808, Lon: 12.045753

Elevation: 997

Station Type: Ventus W831

High Low Average
Temperature 40.6°F4.8°C 28.4°F-2.0°C 35.0°F1.7°C
Dew Point 34.5°F1.4°C 24.2°F-4.3°C 30.7°F-0.7°C
Winds 20.6 mph 33.2 kmh Calm Calm 4.0 mph S6.4 kmh S
Wind Gusts 24.4 mph39.3 kmh -- 5.0 mph8.0 kmh
Humidity 90% 73% 84%
Pressure 29.80 in1009.1 mb 29.55 in1000.7 mb -
Precipitation 0.15 in3.8 mm - -
Hour Temp Dew Point Humidity Winds Wind Gusts Pressure Precip Precip Rate Daily Precip Total
12:00 AM 30.6°F-0.8°C 25.7°F-3.5°C 82% Calm Calm -- 29.79 in1008.8 mb 0.00 in0.0 mm 0.00 in0.0 mm 0.01 in0.3 mm
12:02 AM 30.7°F-0.7°C 25.9°F-3.4°C 82% Calm Calm -- 29.80 in1009.1 mb 0.00 in0.0 mm 0.00 in0.0 mm 0.00 in0.0 mm
12:04 AM 30.7°F-0.7°C 25.9°F-3.4°C 82% Calm Calm -- 29.80 in1009.1 mb 0.00 in0.0 mm 0.00 in0.0 mm 0.00 in0.0 mm
12:06 AM 30.9°F-0.6°C 26.1°F-3.3°C 82% Calm Calm -- 29.80 in1009.1 mb 0.00 in0.0 mm 0.00 in0.0 mm 0.00 in0.0 mm
12:08 AM 30.9°F-0.6°C 26.1°F-3.3°C 82% Calm Calm -- 29.79 in1008.8 mb 0.00 in0.0 mm 0.00 in0.0 mm 0.00 in0.0 mm
12:10 AM 30.9°F-0.6°C 26.1°F-3.3°C 82% 0.7 mph S1.1 kmh S 1.6 mph2.6 kmh 29.80 in1009.1 mb 0.00 in0.0 mm 0.00 in0.0 mm 0.00 in0.0 mm
12:12 AM 30.9°F-0.6°C 26.1°F-3.3°C 82% 0.7 mph S1.1 kmh S 1.6 mph2.6 kmh 29.80 in1009.1 mb 0.00 in0.0 mm 0.00 in0.0 mm 0.00 in0.0 mm
12:14 AM 30.9°F-0.6°C 26.1°F-3.3°C 82% 0.7 mph S1.1 kmh S 1.6 mph2.6 kmh 29.80 in1009.1 mb 0.00 in0.0 mm 0.00 in0.0 mm 0.00 in0.0 mm
12:16 AM 30.9°F-0.6°C 26.1°F-3.3°C 82% 0.7 mph S1.1 kmh S 1.6 mph2.6 kmh 29.79 in1008.8 mb 0.00 in0.0 mm 0.00 in0.0 mm 0.00 in0.0 mm
12:18 AM 30.9°F-0.6°C 26.1°F-3.3°C 82% 1.6 mph S2.6 kmh S 1.6 mph2.6 kmh 29.80 in1009.1 mb 0.00 in0.0 mm 0.00 in0.0 mm 0.00 in0.0 mm
12:20 AM 30.9°F-0.6°C 26.1°F-3.3°C 82% 0.7 mph S1.1 kmh S 1.6 mph2.6 kmh 29.80 in1009.1 mb 0.00 in0.0 mm 0.00 in0.0 mm 0.00 in0.0 mm
12:22 AM 30.7°F-0.7°C 25.9°F-3.4°C 82% 0.7 mph S1.1 kmh S 1.6 mph2.6 kmh 29.79 in1008.8 mb 0.00 in0.0 mm 0.00 in0.0 mm 0.00 in0.0 mm
12:24 AM 30.7°F-0.7°C 26.2°F-3.2°C 83% 1.6 mph S2.6 kmh S 2.2 mph3.5 kmh 29.79 in1008.8 mb 0.00 in0.0 mm 0.00 in0.0 mm 0.00 in0.0 mm
12:26 AM 30.7°F-0.7°C 26.2°F-3.2°C 83% 1.6 mph S2.6 kmh S 2.2 mph3.5 kmh 29.79 in1008.8 mb 0.00 in0.0 mm 0.00 in0.0 mm 0.00 in0.0 mm
12:28 AM 30.7°F-0.7°C 26.2°F-3.2°C 83% 0.7 mph S1.1 kmh S 1.6 mph2.6 kmh 29.79 in1008.8 mb 0.00 in0.0 mm 0.00 in0.0 mm 0.00 in0.0 mm
12:30 AM 30.7°F-0.7°C 26.2°F-3.2°C 83% 0.7 mph S1.1 kmh S 1.6 mph2.6 kmh 29.79 in1008.8 mb 0.00 in0.0 mm 0.00 in0.0 mm 0.00 in0.0 mm
12:32 AM 30.7°F-0.7°C 26.2°F-3.2°C 83% 0.7 mph S1.1 kmh S 1.6 mph2.6 kmh 29.80 in1009.1 mb 0.00 in0.0 mm 0.00 in0.0 mm 0.00 in0.0 mm
12:34 AM 30.6°F-0.8°C 26.0°F-3.3°C 83% 0.7 mph S1.1 kmh S 1.6 mph2.6 kmh 29.79 in1008.8 mb 0.00 in0.0 mm 0.00 in0.0 mm 0.00 in0.0 mm
12:36 AM 30.6°F-0.8°C 26.0°F-3.3°C 83% 1.6 mph S2.6 kmh S 2.2 mph3.5 kmh 29.79 in1008.8 mb 0.00 in0.0 mm 0.00 in0.0 mm 0.00 in0.0 mm
12:38 AM 30.4°F-0.9°C 25.9°F-3.4°C 83% 0.7 mph S1.1 kmh S 1.6 mph2.6 kmh 29.79 in1008.8 mb 0.00 in0.0 mm 0.00 in0.0 mm 0.00 in0.0 mm
12:40 AM 30.4°F-0.9°C 25.9°F-3.4°C 83% 0.7 mph S1.1 kmh S 1.6 mph2.6 kmh 29.79 in1008.8 mb 0.00 in0.0 mm 0.00 in0.0 mm 0.00 in0.0 mm
12:42 AM 30.4°F-0.9°C 25.9°F-3.4°C 83% Calm Calm 0.7 mph1.1 kmh 29.79 in1008.8 mb 0.00 in0.0 mm 0.00 in0.0 mm 0.00 in0.0 mm
12:44 AM 30.4°F-0.9°C 25.9°F-3.4°C 83% 0.7 mph S1.1 kmh S 1.6 mph2.6 kmh 29.79 in1008.8 mb 0.00 in0.0 mm 0.00 in0.0 mm 0.00 in0.0 mm
12:46 AM 30.4°F-0.9°C 25.9°F-3.4°C 83% 0.7 mph S1.1 kmh S 1.6 mph2.6 kmh 29.79 in1008.8 mb 0.00 in0.0 mm 0.00 in0.0 mm 0.00 in0.0 mm
12:48 AM 30.4°F-0.9°C 25.9°F-3.4°C 83% Calm Calm 0.7 mph1.1 kmh 29.79 in1008.8 mb 0.00 in0.0 mm 0.00 in0.0 mm 0.00 in0.0 mm
12:50 AM 30.2°F-1.0°C 25.7°F-3.5°C 83% 0.7 mph S1.1 kmh S 1.6 mph2.6 kmh 29.79 in1008.8 mb 0.00 in0.0 mm 0.00 in0.0 mm 0.00 in0.0 mm
12:52 AM 30.2°F-1.0°C 25.7°F-3.5°C 83% 0.7 mph S1.1 kmh S 1.6 mph2.6 kmh 29.79 in1008.8 mb 0.00 in0.0 mm 0.00 in0.0 mm 0.00 in0.0 mm
12:54 AM 30.2°F-1.0°C 25.7°F-3.5°C 83% 0.7 mph S1.1 kmh S 1.6 mph2.6 kmh 29.79 in1008.8 mb 0.00 in0.0 mm 0.00 in0.0 mm 0.00 in0.0 mm
12:56 AM 30.2°F-1.0°C 25.7°F-3.5°C 83% 0.7 mph S1.1 kmh S 0.7 mph1.1 kmh 29.79 in1008.8 mb 0.00 in0.0 mm 0.00 in0.0 mm 0.00 in0.0 mm
12:58 AM 30.0°F-1.1°C 25.5°F-3.6°C 83% 1.6 mph S2.6 kmh S 1.6 mph2.6 kmh 29.79 in1008.8 mb 0.00 in0.0 mm 0.00 in0.0 mm 0.00 in0.0 mm
01:00 AM 30.2°F-1.0°C 25.7°F-3.5°C 83% 0.7 mph S1.1 kmh S 1.6 mph2.6 kmh 29.79 in1008.8 mb 0.00 in0.0 mm 0.00 in0.0 mm 0.00 in0.0 mm
01:02 AM 30.2°F-1.0°C 25.7°F-3.5°C 83% 0.7 mph S1.1 kmh S 1.6 mph2.6 kmh 29.78 in1008.5 mb 0.00 in0.0 mm 0.00 in0.0 mm 0.00 in0.0 mm
01:04 AM 30.2°F-1.0°C 25.7°F-3.5°C 83% Calm Calm 0.7 mph1.1 kmh 29.78 in1008.5 mb 0.00 in0.0 mm 0.00 in0.0 mm 0.00 in0.0 mm
01:06 AM 30.2°F-1.0°C 25.7°F-3.5°C 83% Calm Calm 0.7 mph1.1 kmh 29.78 in1008.5 mb 0.00 in0.0 mm 0.00 in0.0 mm 0.00 in0.0 mm
01:08 AM 30.2°F-1.0°C 25.7°F-3.5°C 83% Calm Calm -- 29.79 in1008.8 mb 0.00 in0.0 mm 0.00 in0.0 mm 0.00 in0.0 mm
01:10 AM 30.2°F-1.0°C 25.7°F-3.5°C 83% 0.7 mph S1.1 kmh S 0.7 mph1.1 kmh 29.79 in1008.8 mb 0.00 in0.0 mm 0.00 in0.0 mm 0.00 in0.0 mm
01:12 AM 30.0°F-1.1°C 25.5°F-3.6°C 83% Calm Calm -- 29.79 in1008.8 mb 0.00 in0.0 mm 0.00 in0.0 mm 0.00 in0.0 mm
01:14 AM 30.0°F-1.1°C 25.5°F-3.6°C 83% Calm Calm -- 29.78 in1008.5 mb 0.00 in0.0 mm 0.00 in0.0 mm 0.00 in0.0 mm
01:16 AM 30.0°F-1.1°C 25.5°F-3.6°C 83% Calm Calm -- 29.78 in1008.5 mb 0.00 in0.0 mm 0.00 in0.0 mm 0.00 in0.0 mm
01:19 AM 29.8°F-1.2°C 25.3°F-3.7°C 83% Calm Calm -- 29.78 in1008.5 mb 0.00 in0.0 mm 0.00 in0.0 mm 0.00 in0.0 mm
01:21 AM 29.8°F-1.2°C 25.3°F-3.7°C 83% Calm Calm -- 29.78 in1008.5 mb 0.00 in0.0 mm 0.00 in0.0 mm 0.00 in0.0 mm
01:23 AM 29.8°F-1.2°C 25.3°F-3.7°C 83% Calm Calm 0.7 mph1.1 kmh 29.78 in1008.5 mb 0.00 in0.0 mm 0.00 in0.0 mm 0.00 in0.0 mm
01:25 AM 29.8°F-1.2°C 25.3°F-3.7°C 83% 0.7 mph S1.1 kmh S 0.7 mph1.1 kmh 29.78 in1008.5 mb 0.00 in0.0 mm 0.00 in0.0 mm 0.00 in0.0 mm
01:27 AM 29.7°F-1.3°C 25.1°F-3.8°C 83% Calm Calm 0.7 mph1.1 kmh 29.78 in1008.5 mb 0.00 in0.0 mm 0.00 in0.0 mm 0.00 in0.0 mm
01:29 AM 29.5°F-1.4°C 25.0°F-3.9°C 83% 0.7 mph S1.1 kmh S 1.6 mph2.6 kmh 29.78 in1008.5 mb 0.00 in0.0 mm 0.00 in0.0 mm 0.00 in0.0 mm
01:31 AM 29.5°F-1.4°C 25.0°F-3.9°C 83% 1.6 mph S2.6 kmh S 2.2 mph3.5 kmh 29.78 in1008.5 mb 0.00 in0.0 mm 0.00 in0.0 mm 0.00 in0.0 mm
01:33 AM 29.7°F-1.3°C 25.1°F-3.8°C 83% 1.6 mph SW2.6 kmh SW 2.2 mph3.5 kmh 29.78 in1008.5 mb 0.00 in0.0 mm 0.00 in0.0 mm 0.00 in0.0 mm
01:35 AM 29.7°F-1.3°C 25.1°F-3.8°C 83% 2.2 mph W3.5 kmh W 3.1 mph5.0 kmh 29.79 in1008.8 mb 0.00 in0.0 mm 0.00 in0.0 mm 0.00 in0.0 mm
01:37 AM 29.7°F-1.3°C 25.1°F-3.8°C 83% 2.2 mph W3.5 kmh W 3.1 mph5.0 kmh 29.78 in1008.5 mb 0.00 in0.0 mm 0.00 in0.0 mm 0.00 in0.0 mm
01:39 AM 29.7°F-1.3°C 25.4°F-3.7°C 84% 1.6 mph W2.6 kmh W 2.2 mph3.5 kmh 29.78 in1008.5 mb 0.00 in0.0 mm 0.00 in0.0 mm 0.00 in0.0 mm
01:41 AM 29.7°F-1.3°C 25.4°F-3.7°C 84% 1.6 mph W2.6 kmh W 2.2 mph3.5 kmh 29.78 in1008.5 mb 0.00 in0.0 mm 0.00 in0.0 mm 0.00 in0.0 mm
01:43 AM 29.8°F-1.2°C 25.6°F-3.6°C 84% 2.2 mph W3.5 kmh W 3.1 mph5.0 kmh 29.78 in1008.5 mb 0.00 in0.0 mm 0.00 in0.0 mm 0.00 in0.0 mm
01:45 AM 29.8°F-1.2°C 25.6°F-3.6°C 84% 0.7 mph W1.1 kmh W 1.6 mph2.6 kmh 29.78 in1008.5 mb 0.00 in0.0 mm 0.00 in0.0 mm 0.00 in0.0 mm
01:47 AM 29.7°F-1.3°C 25.4°F-3.7°C 84% 0.7 mph W1.1 kmh W 1.6 mph2.6 kmh 29.78 in1008.5 mb 0.00 in0.0 mm 0.00 in0.0 mm 0.00 in0.0 mm
01:49 AM 29.7°F-1.3°C 25.4°F-3.7°C 84% 0.7 mph W1.1 kmh W 1.6 mph2.6 kmh 29.78 in1008.5 mb 0.00 in0.0 mm 0.00 in0.0 mm 0.00 in0.0 mm
01:51 AM 29.5°F-1.4°C 25.3°F-3.7°C 84% 0.7 mph W1.1 kmh W 1.6 mph2.6 kmh 29.79 in1008.8 mb 0.00 in0.0 mm 0.00 in0.0 mm 0.00 in0.0 mm
01:53 AM 29.5°F-1.4°C 25.3°F-3.7°C 84% 1.6 mph W2.6 kmh W 2.2 mph3.5 kmh 29.79 in1008.8 mb 0.00 in0.0 mm 0.00 in0.0 mm 0.00 in0.0 mm
01:55 AM 29.5°F-1.4°C 25.3°F-3.7°C 84% Calm Calm 0.7 mph1.1 kmh 29.78 in1008.5 mb 0.00 in0.0 mm 0.00 in0.0 mm 0.00 in0.0 mm
01:57 AM 29.5°F-1.4°C 25.3°F-3.7°C 84% 0.7 mph NW1.1 kmh NW 1.6 mph2.6 kmh 29.79 in1008.8 mb 0.00 in0.0 mm 0.00 in0.0 mm 0.00 in0.0 mm
01:59 AM 29.5°F-1.4°C 25.3°F-3.7°C 84% 0.7 mph W1.1 kmh W 1.6 mph2.6 kmh 29.78 in1008.5 mb 0.00 in0.0 mm 0.00 in0.0 mm 0.00 in0.0 mm
02:01 AM 29.5°F-1.4°C 25.3°F-3.7°C 84% 0.7 mph W1.1 kmh W 1.6 mph2.6 kmh 29.79 in1008.8 mb 0.00 in0.0 mm 0.00 in0.0 mm 0.00 in0.0 mm
02:03 AM 29.5°F-1.4°C 25.3°F-3.7°C 84% 0.7 mph W1.1 kmh W 1.6 mph2.6 kmh 29.79 in1008.8 mb 0.00 in0.0 mm 0.00 in0.0 mm 0.00 in0.0 mm
02:06 AM 29.5°F-1.4°C 25.3°F-3.7°C 84% 0.7 mph W1.1 kmh W 1.6 mph2.6 kmh 29.78 in1008.5 mb 0.00 in0.0 mm 0.00 in0.0 mm 0.00 in0.0 mm
02:08 AM 29.5°F-1.4°C 25.3°F-3.7°C 84% 0.7 mph W1.1 kmh W 1.6 mph2.6 kmh 29.79 in1008.8 mb 0.00 in0.0 mm 0.00 in0.0 mm 0.00 in0.0 mm
02:09 AM 29.5°F-1.4°C 25.3°F-3.7°C 84% 1.6 mph W2.6 kmh W 2.2 mph3.5 kmh 29.79 in1008.8 mb 0.00 in0.0 mm 0.00 in0.0 mm 0.00 in0.0 mm
02:10 AM 29.5°F-1.4°C 25.3°F-3.7°C 84% 0.7 mph W1.1 kmh W 1.6 mph2.6 kmh 29.78 in1008.5 mb 0.00 in0.0 mm 0.00 in0.0 mm 0.00 in0.0 mm
02:12 AM 29.3°F-1.5°C 25.1°F-3.8°C 84% 0.7 mph W1.1 kmh W 1.6 mph2.6 kmh 29.79 in1008.8 mb 0.00 in0.0 mm 0.00 in0.0 mm 0.00 in0.0 mm
02:14 AM 29.3°F-1.5°C 25.1°F-3.8°C 84% 1.6 mph W2.6 kmh W 2.2 mph3.5 kmh 29.78 in1008.5 mb 0.00 in0.0 mm 0.00 in0.0 mm 0.00 in0.0 mm
02:17 AM 29.3°F-1.5°C 25.1°F-3.8°C 84% 0.7 mph W1.1 kmh W 1.6 mph2.6 kmh 29.78 in1008.5 mb 0.00 in0.0 mm 0.00 in0.0 mm 0.00 in0.0 mm
02:19 AM 29.3°F-1.5°C 25.1°F-3.8°C 84% 0.7 mph W1.1 kmh W 0.7 mph1.1 kmh 29.78 in1008.5 mb 0.00 in0.0 mm 0.00 in0.0 mm 0.00 in0.0 mm
02:21 AM 29.1°F-1.6°C 24.9°F-3.9°C 84% Calm Calm -- 29.78 in1008.5 mb 0.00 in0.0 mm 0.00 in0.0 mm 0.00 in0.0 mm
02:23 AM 29.1°F-1.6°C 24.9°F-3.9°C 84% Calm Calm -- 29.78 in1008.5 mb 0.00 in0.0 mm 0.00 in0.0 mm 0.00 in0.0 mm
02:25 AM 29.1°F-1.6°C 24.9°F-3.9°C 84% Calm Calm -- 29.78 in1008.5 mb 0.00 in0.0 mm 0.00 in0.0 mm 0.00 in0.0 mm
02:27 AM 28.9°F-1.7°C 24.7°F-4.1°C 84% Calm Calm -- 29.78 in1008.5 mb 0.00 in0.0 mm 0.00 in0.0 mm 0.00 in0.0 mm
02:29 AM 28.9°F-1.7°C 24.7°F-4.1°C 84% Calm Calm -- 29.78 in1008.5 mb 0.00 in0.0 mm 0.00 in0.0 mm 0.00 in0.0 mm
02:31 AM 28.8°F-1.8°C 24.6°F-4.1°C 84% Calm Calm -- 29.78 in1008.5 mb 0.00 in0.0 mm 0.00 in0.0 mm 0.00 in0.0 mm
02:33 AM 28.9°F-1.7°C 24.7°F-4.1°C 84% Calm Calm -- 29.78 in1008.5 mb 0.00 in0.0 mm 0.00 in0.0 mm 0.00 in0.0 mm
02:35 AM 29.1°F-1.6°C 24.9°F-3.9°C 84% Calm Calm 0.7 mph1.1 kmh 29.78 in1008.5 mb 0.00 in0.0 mm 0.00 in0.0 mm 0.00 in0.0 mm
02:37 AM 29.3°F-1.5°C 25.1°F-3.8°C 84% 0.7 mph W1.1 kmh W 1.6 mph2.6 kmh 29.78 in1008.5 mb 0.00 in0.0 mm 0.00 in0.0 mm 0.00 in0.0 mm
02:39 AM 29.1°F-1.6°C 24.9°F-3.9°C 84% 0.7 mph W1.1 kmh W 0.7 mph1.1 kmh 29.78 in1008.5 mb 0.00 in0.0 mm 0.00 in0.0 mm 0.00 in0.0 mm
02:41 AM 29.1°F-1.6°C 24.9°F-3.9°C 84% Calm Calm 0.7 mph1.1 kmh 29.78 in1008.5 mb 0.00 in0.0 mm 0.00 in0.0 mm 0.00 in0.0 mm
02:43 AM 29.3°F-1.5°C 25.1°F-3.8°C 84% Calm Calm -- 29.78 in1008.5 mb 0.00 in0.0 mm 0.00 in0.0 mm 0.00 in0.0 mm
02:45 AM 29.3°F-1.5°C 25.1°F-3.8°C 84% 0.7 mph W1.1 kmh W 1.6 mph2.6 kmh 29.77 in1008.1 mb 0.00 in0.0 mm 0.00 in0.0 mm 0.00 in0.0 mm
02:47 AM 29.1°F-1.6°C 24.9°F-3.9°C 84% 1.6 mph W2.6 kmh W 2.2 mph3.5 kmh 29.78 in1008.5 mb 0.00 in0.0 mm 0.00 in0.0 mm 0.00 in0.0 mm
02:49 AM 29.1°F-1.6°C 24.9°F-3.9°C 84% 1.6 mph W2.6 kmh W 2.2 mph3.5 kmh 29.79 in1008.8 mb 0.00 in0.0 mm 0.00 in0.0 mm 0.00 in0.0 mm
02:51 AM 28.9°F-1.7°C 24.7°F-4.1°C 84% 1.6 mph W2.6 kmh W 2.2 mph3.5 kmh 29.78 in1008.5 mb 0.00 in0.0 mm 0.00 in0.0 mm 0.00 in0.0 mm
02:53 AM 28.8°F-1.8°C 24.6°F-4.1°C 84% 1.6 mph W2.6 kmh W 2.2 mph3.5 kmh 29.78 in1008.5 mb 0.00 in0.0 mm 0.00 in0.0 mm 0.00 in0.0 mm
02:55 AM 28.9°F-1.7°C 24.7°F-4.1°C 84% 0.7 mph W1.1 kmh W 1.6 mph2.6 kmh 29.78 in1008.5 mb 0.00 in0.0 mm 0.00 in0.0 mm 0.00 in0.0 mm
02:57 AM 28.9°F-1.7°C 24.7°F-4.1°C 84% 1.6 mph W2.6 kmh W 2.2 mph3.5 kmh 29.78 in1008.5 mb 0.00 in0.0 mm 0.00 in0.0 mm 0.00 in0.0 mm
02:59 AM 28.9°F-1.7°C 24.7°F-4.1°C 84% 2.2 mph W3.5 kmh W 2.2 mph3.5 kmh 29.78 in1008.5 mb 0.00 in0.0 mm 0.00 in0.0 mm 0.00 in0.0 mm
03:01 AM 28.8°F-1.8°C 24.6°F-4.1°C 84% 1.6 mph W2.6 kmh W 2.2 mph3.5 kmh 29.77 in1008.1 mb 0.00 in0.0 mm 0.00 in0.0 mm 0.00 in0.0 mm
03:03 AM 28.8°F-1.8°C 24.6°F-4.1°C 84% 1.6 mph W2.6 kmh W 2.2 mph3.5 kmh 29.78 in1008.5 mb 0.00 in0.0 mm 0.00 in0.0 mm 0.00 in0.0 mm
03:05 AM 28.6°F-1.9°C 24.4°F-4.2°C 84% 1.6 mph W2.6 kmh W 1.6 mph2.6 kmh 29.77 in1008.1 mb 0.00 in0.0 mm 0.00 in0.0 mm 0.00 in0.0 mm
03:07 AM 28.6°F-1.9°C 24.4°F-4.2°C 84% 0.7 mph W1.1 kmh W 1.6 mph2.6 kmh 29.78 in1008.5 mb 0.00 in0.0 mm 0.00 in0.0 mm 0.00 in0.0 mm
03:09 AM 28.8°F-1.8°C 24.6°F-4.1°C 84% 0.7 mph W1.1 kmh W 1.6 mph2.6 kmh 29.77 in1008.1 mb 0.00 in0.0 mm 0.00 in0.0 mm 0.00 in0.0 mm
03:11 AM 28.9°F-1.7°C 24.7°F-4.1°C 84% 0.7 mph W1.1 kmh W 1.6 mph2.6 kmh 29.77 in1008.1 mb 0.00 in0.0 mm 0.00 in0.0 mm 0.00 in0.0 mm
03:13 AM 29.1°F-1.6°C 24.9°F-3.9°C 84% 0.7 mph W1.1 kmh W 1.6 mph2.6 kmh 29.78 in1008.5 mb 0.00 in0.0 mm 0.00 in0.0 mm 0.00 in0.0 mm
03:15 AM 29.3°F-1.5°C 25.1°F-3.8°C 84% 1.6 mph W2.6 kmh W 2.2 mph3.5 kmh 29.77 in1008.1 mb 0.00 in0.0 mm 0.00 in0.0 mm 0.00 in0.0 mm
03:17 AM 29.3°F-1.5°C 25.1°F-3.8°C 84% 2.2 mph W3.5 kmh W 3.1 mph5.0 kmh 29.78 in1008.5 mb 0.00 in0.0 mm 0.00 in0.0 mm 0.00 in0.0 mm
03:19 AM 29.3°F-1.5°C 25.1°F-3.8°C 84% 1.6 mph W2.6 kmh W 2.2 mph3.5 kmh 29.78 in1008.5 mb 0.00 in0.0 mm 0.00 in0.0 mm 0.00 in0.0 mm
03:21 AM 29.5°F-1.4°C 25.3°F-3.7°C 84% 0.7 mph W1.1 kmh W 0.7 mph1.1 kmh 29.77 in1008.1 mb 0.00 in0.0 mm 0.00 in0.0 mm 0.00 in0.0 mm
03:23 AM 29.5°F-1.4°C 25.5°F-3.6°C 85% 0.7 mph W1.1 kmh W 1.6 mph2.6 kmh 29.77 in1008.1 mb 0.00 in0.0 mm 0.00 in0.0 mm 0.00 in0.0 mm
03:25 AM 29.5°F-1.4°C 25.5°F-3.6°C 85% 0.7 mph W1.1 kmh W 1.6 mph2.6 kmh 29.77 in1008.1 mb 0.00 in0.0 mm 0.00 in0.0 mm 0.00 in0.0 mm
03:27 AM 29.3°F-1.5°C 25.4°F-3.7°C 85% 0.7 mph W1.1 kmh W 1.6 mph2.6 kmh 29.77 in1008.1 mb 0.00 in0.0 mm 0.00 in0.0 mm 0.00 in0.0 mm
03:29 AM 29.3°F-1.5°C 25.1°F-3.8°C 84% Calm Calm 0.7 mph1.1 kmh 29.77 in1008.1 mb 0.00 in0.0 mm 0.00 in0.0 mm 0.00 in0.0 mm
03:31 AM 29.1°F-1.6°C 24.9°F-3.9°C 84% Calm Calm 0.7 mph1.1 kmh 29.77 in1008.1 mb 0.00 in0.0 mm 0.00 in0.0 mm 0.00 in0.0 mm
03:33 AM 28.9°F-1.7°C 24.7°F-4.1°C 84% 0.7 mph W1.1 kmh W 1.6 mph2.6 kmh 29.77 in1008.1 mb 0.00 in0.0 mm 0.00 in0.0 mm 0.00 in0.0 mm
03:35 AM 28.8°F-1.8°C 24.6°F-4.1°C 84% 0.7 mph W1.1 kmh W 0.7 mph1.1 kmh 29.77 in1008.1 mb 0.00 in0.0 mm 0.00 in0.0 mm 0.00 in0.0 mm
03:37 AM 28.6°F-1.9°C 24.4°F-4.2°C 84% Calm Calm 0.7 mph1.1 kmh 29.76 in1007.8 mb 0.00 in0.0 mm 0.00 in0.0 mm 0.00 in0.0 mm
03:39 AM 28.4°F-2.0°C 24.2°F-4.3°C 84% Calm Calm 0.7 mph1.1 kmh 29.76 in1007.8 mb 0.00 in0.0 mm 0.00 in0.0 mm 0.00 in0.0 mm
03:41 AM 28.4°F-2.0°C 24.2°F-4.3°C 84% Calm Calm 0.7 mph1.1 kmh 29.76 in1007.8 mb 0.00 in0.0 mm 0.00 in0.0 mm 0.00 in0.0 mm
03:43 AM 28.4°F-2.0°C 24.2°F-4.3°C 84% Calm Calm 0.7 mph1.1 kmh 29.76 in1007.8 mb 0.00 in0.0 mm 0.00 in0.0 mm 0.00 in0.0 mm
03:45 AM 28.4°F-2.0°C 24.2°F-4.3°C 84% 0.7 mph W1.1 kmh W 1.6 mph2.6 kmh 29.76 in1007.8 mb 0.00 in0.0 mm 0.00 in0.0 mm 0.00 in0.0 mm
03:47 AM 28.4°F-2.0°C 24.2°F-4.3°C 84% 0.7 mph W1.1 kmh W 1.6 mph2.6 kmh 29.76 in1007.8 mb 0.00 in0.0 mm 0.00 in0.0 mm 0.00 in0.0 mm
03:49 AM 28.4°F-2.0°C 24.2°F-4.3°C 84% 0.7 mph W1.1 kmh W 1.6 mph2.6 kmh 29.76 in1007.8 mb 0.00 in0.0 mm 0.00 in0.0 mm 0.00 in0.0 mm
03:51 AM 28.4°F-2.0°C 24.2°F-4.3°C 84% 0.7 mph W1.1 kmh W 1.6 mph2.6 kmh 29.76 in1007.8 mb 0.00 in0.0 mm 0.00 in0.0 mm 0.00 in0.0 mm
03:53 AM 28.4°F-2.0°C 24.2°F-4.3°C 84% Calm Calm 0.7 mph1.1 kmh 29.75 in1007.5 mb 0.00 in0.0 mm 0.00 in0.0 mm 0.00 in0.0 mm
03:55 AM 28.6°F-1.9°C 24.4°F-4.2°C 84% Calm Calm -- 29.75 in1007.5 mb 0.00 in0.0 mm 0.00 in0.0 mm 0.00 in0.0 mm
03:57 AM 28.8°F-1.8°C 24.6°F-4.1°C 84% Calm Calm -- 29.75 in1007.5 mb 0.00 in0.0 mm 0.00 in0.0 mm 0.00 in0.0 mm
03:59 AM 28.8°F-1.8°C 24.8°F-4.0°C 85% Calm Calm -- 29.75 in1007.5 mb 0.00 in0.0 mm 0.00 in0.0 mm 0.00 in0.0 mm
04:01 AM 28.9°F-1.7°C 25.0°F-3.9°C 85% Calm Calm -- 29.76 in1007.8 mb 0.00 in0.0 mm 0.00 in0.0 mm 0.00 in0.0 mm
04:03 AM 29.1°F-1.6°C 25.2°F-3.8°C 85% Calm Calm -- 29.75 in1007.5 mb 0.00 in0.0 mm 0.00 in0.0 mm 0.00 in0.0 mm
04:05 AM 29.1°F-1.6°C 25.2°F-3.8°C 85% Calm Calm -- 29.75 in1007.5 mb 0.00 in0.0 mm 0.00 in0.0 mm 0.00 in0.0 mm
04:07 AM 29.1°F-1.6°C 25.2°F-3.8°C 85% Calm Calm -- 29.75 in1007.5 mb 0.00 in0.0 mm 0.00 in0.0 mm 0.00 in0.0 mm
04:09 AM 29.1°F-1.6°C 25.2°F-3.8°C 85% Calm Calm -- 29.75 in1007.5 mb 0.00 in0.0 mm 0.00 in0.0 mm 0.00 in0.0 mm
04:11 AM 29.1°F-1.6°C 25.2°F-3.8°C 85% Calm Calm -- 29.75 in1007.5 mb 0.00 in0.0 mm 0.00 in0.0 mm 0.00 in0.0 mm
04:13 AM 29.1°F-1.6°C 25.2°F-3.8°C 85% Calm Calm 0.7 mph1.1 kmh 29.74 in1007.1 mb 0.00 in0.0 mm 0.00 in0.0 mm 0.00 in0.0 mm
04:15 AM 29.1°F-1.6°C 25.2°F-3.8°C 85% Calm Calm 0.7 mph1.1 kmh 29.75 in1007.5 mb 0.00 in0.0 mm 0.00 in0.0 mm 0.00 in0.0 mm
04:17 AM 29.1°F-1.6°C 25.2°F-3.8°C 85% 0.7 mph W1.1 kmh W 0.7 mph1.1 kmh 29.74 in1007.1 mb 0.00 in0.0 mm 0.00 in0.0 mm 0.00 in0.0 mm
04:19 AM 29.1°F-1.6°C 25.2°F-3.8°C 85% Calm Calm 0.7 mph1.1 kmh 29.75 in1007.5 mb 0.00 in0.0 mm 0.00 in0.0 mm 0.00 in0.0 mm
04:21 AM 29.1°F-1.6°C 25.2°F-3.8°C 85% Calm Calm 0.7 mph1.1 kmh 29.74 in1007.1 mb 0.00 in0.0 mm 0.00 in0.0 mm 0.00 in0.0 mm
04:23 AM 29.3°F-1.5°C 25.4°F-3.7°C 85% 0.7 mph W1.1 kmh W 1.6 mph2.6 kmh 29.74 in1007.1 mb 0.00 in0.0 mm 0.00 in0.0 mm 0.00 in0.0 mm
04:25 AM 29.5°F-1.4°C 25.5°F-3.6°C 85% 0.7 mph W1.1 kmh W 1.6 mph2.6 kmh 29.75 in1007.5 mb 0.00 in0.0 mm 0.00 in0.0 mm 0.00 in0.0 mm
04:27 AM 29.7°F-1.3°C 25.7°F-3.5°C 85% Calm Calm 0.7 mph1.1 kmh 29.74 in1007.1 mb 0.00 in0.0 mm 0.00 in0.0 mm 0.00 in0.0 mm
04:29 AM 29.7°F-1.3°C 25.7°F-3.5°C 85% 0.7 mph W1.1 kmh W 0.7 mph1.1 kmh 29.74 in1007.1 mb 0.00 in0.0 mm 0.00 in0.0 mm 0.00 in0.0 mm
04:31 AM 29.8°F-1.2°C 25.9°F-3.4°C 85% 0.7 mph W1.1 kmh W 0.7 mph1.1 kmh 29.74 in1007.1 mb 0.00 in0.0 mm 0.00 in0.0 mm 0.00 in0.0 mm
04:33 AM 29.8°F-1.2°C 25.9°F-3.4°C 85% Calm Calm 0.7 mph1.1 kmh 29.74 in1007.1 mb 0.00 in0.0 mm 0.00 in0.0 mm 0.00 in0.0 mm
04:35 AM 30.0°F-1.1°C 26.1°F-3.3°C 85% 0.7 mph W1.1 kmh W 1.6 mph2.6 kmh 29.74 in1007.1 mb 0.00 in0.0 mm 0.00 in0.0 mm 0.00 in0.0 mm
04:37 AM 30.0°F-1.1°C 26.1°F-3.3°C 85% 0.7 mph W1.1 kmh W 1.6 mph2.6 kmh 29.74 in1007.1 mb 0.00 in0.0 mm 0.00 in0.0 mm 0.00 in0.0 mm
04:39 AM 30.0°F-1.1°C 26.1°F-3.3°C 85% 1.6 mph W2.6 kmh W 2.2 mph3.5 kmh 29.74 in1007.1 mb 0.00 in0.0 mm 0.00 in0.0 mm 0.00 in0.0 mm
04:41 AM 30.0°F-1.1°C 26.1°F-3.3°C 85% 1.6 mph W2.6 kmh W 1.6 mph2.6 kmh 29.74 in1007.1 mb 0.00 in0.0 mm 0.00 in0.0 mm 0.00 in0.0 mm
04:43 AM 30.0°F-1.1°C 26.1°F-3.3°C 85% 1.6 mph W2.6 kmh W 1.6 mph2.6 kmh 29.74 in1007.1 mb 0.00 in0.0 mm 0.00 in0.0 mm 0.00 in0.0 mm
04:45 AM 30.0°F-1.1°C 26.1°F-3.3°C 85% 0.7 mph W1.1 kmh W 1.6 mph2.6 kmh 29.74 in1007.1 mb 0.00 in0.0 mm 0.00 in0.0 mm 0.00 in0.0 mm
04:47 AM 30.2°F-1.0°C 26.2°F-3.2°C 85% 1.6 mph W2.6 kmh W 2.2 mph3.5 kmh 29.74 in1007.1 mb 0.00 in0.0 mm 0.00 in0.0 mm 0.00 in0.0 mm
04:49 AM 30.2°F-1.0°C 26.2°F-3.2°C 85% 1.6 mph W2.6 kmh W 2.2 mph3.5 kmh 29.73 in1006.8 mb 0.00 in0.0 mm 0.00 in0.0 mm 0.00 in0.0 mm
04:51 AM 30.2°F-1.0°C 26.2°F-3.2°C 85% 1.6 mph W2.6 kmh W 2.2 mph3.5 kmh 29.74 in1007.1 mb 0.00 in0.0 mm 0.00 in0.0 mm 0.00 in0.0 mm
04:53 AM 30.2°F-1.0°C 26.2°F-3.2°C 85% 1.6 mph W2.6 kmh W 2.2 mph3.5 kmh 29.74 in1007.1 mb 0.00 in0.0 mm 0.00 in0.0 mm 0.00 in0.0 mm
04:55 AM 30.2°F-1.0°C 26.2°F-3.2°C 85% 1.6 mph W2.6 kmh W 2.2 mph3.5 kmh 29.74 in1007.1 mb 0.00 in0.0 mm 0.00 in0.0 mm 0.00 in0.0 mm
04:57 AM 30.2°F-1.0°C 26.2°F-3.2°C 85% 0.7 mph W1.1 kmh W 1.6 mph2.6 kmh 29.74 in1007.1 mb 0.00 in0.0 mm 0.00 in0.0 mm 0.00 in0.0 mm
04:59 AM 30.2°F-1.0°C 26.5°F-3.1°C 86% 0.7 mph W1.1 kmh W 1.6 mph2.6 kmh 29.74 in1007.1 mb 0.00 in0.0 mm 0.00 in0.0 mm 0.00 in0.0 mm
05:01 AM 30.2°F-1.0°C 26.5°F-3.1°C 86% 0.7 mph W1.1 kmh W 1.6 mph2.6 kmh 29.74 in1007.1 mb 0.00 in0.0 mm 0.00 in0.0 mm 0.00 in0.0 mm
05:03 AM 30.2°F-1.0°C 26.5°F-3.1°C 86% 0.7 mph W1.1 kmh W 1.6 mph2.6 kmh 29.74 in1007.1 mb 0.00 in0.0 mm 0.00 in0.0 mm 0.00 in0.0 mm
05:05 AM 30.2°F-1.0°C 26.5°F-3.1°C 86% 0.7 mph W1.1 kmh W 1.6 mph2.6 kmh 29.74 in1007.1 mb 0.00 in0.0 mm 0.00 in0.0 mm 0.00 in0.0 mm
05:07 AM 30.4°F-0.9°C 26.7°F-2.9°C 86% 0.7 mph W1.1 kmh W 1.6 mph2.6 kmh 29.74 in1007.1 mb 0.00 in0.0 mm 0.00 in0.0 mm 0.00 in0.0 mm
05:09 AM 30.2°F-1.0°C 26.5°F-3.1°C 86% 0.7 mph W1.1 kmh W 1.6 mph2.6 kmh 29.74 in1007.1 mb 0.00 in0.0 mm 0.00 in0.0 mm 0.00 in0.0 mm
05:11 AM 30.2°F-1.0°C 26.5°F-3.1°C 86% 1.6 mph W2.6 kmh W 2.2 mph3.5 kmh 29.74 in1007.1 mb 0.00 in0.0 mm 0.00 in0.0 mm 0.00 in0.0 mm
05:13 AM 30.2°F-1.0°C 26.5°F-3.1°C 86% 1.6 mph W2.6 kmh W 1.6 mph2.6 kmh 29.74 in1007.1 mb 0.00 in0.0 mm 0.00 in0.0 mm 0.00 in0.0 mm
05:16 AM 30.2°F-1.0°C 26.5°F-3.1°C 86% 0.7 mph W1.1 kmh W 1.6 mph2.6 kmh 29.74 in1007.1 mb 0.00 in0.0 mm 0.00 in0.0 mm 0.00 in0.0 mm
05:18 AM 30.2°F-1.0°C 26.5°F-3.1°C 86% 0.7 mph W1.1 kmh W 1.6 mph2.6 kmh 29.74 in1007.1 mb 0.00 in0.0 mm 0.00 in0.0 mm 0.00 in0.0 mm
05:20 AM 30.2°F-1.0°C 26.5°F-3.1°C 86% 0.7 mph W1.1 kmh W 1.6 mph2.6 kmh 29.74 in1007.1 mb 0.00 in0.0 mm 0.00 in0.0 mm 0.00 in0.0 mm
05:22 AM 30.2°F-1.0°C 26.5°F-3.1°C 86% Calm Calm 0.7 mph1.1 kmh 29.74 in1007.1 mb 0.00 in0.0 mm 0.00 in0.0 mm 0.00 in0.0 mm
05:24 AM 30.2°F-1.0°C 26.5°F-3.1°C 86% 0.7 mph W1.1 kmh W 0.7 mph1.1 kmh 29.74 in1007.1 mb 0.00 in0.0 mm 0.00 in0.0 mm 0.00 in0.0 mm
05:26 AM 30.2°F-1.0°C 26.5°F-3.1°C 86% Calm Calm 0.7 mph1.1 kmh 29.74 in1007.1 mb 0.00 in0.0 mm 0.00 in0.0 mm 0.00 in0.0 mm
05:28 AM 30.4°F-0.9°C 26.7°F-2.9°C 86% Calm Calm 0.7 mph1.1 kmh 29.74 in1007.1 mb 0.00 in0.0 mm 0.00 in0.0 mm 0.00 in0.0 mm
05:30 AM 30.4°F-0.9°C 26.7°F-2.9°C 86% Calm Calm -- 29.74 in1007.1 mb 0.00 in0.0 mm 0.00 in0.0 mm 0.00 in0.0 mm
05:32 AM 30.4°F-0.9°C 26.7°F-2.9°C 86% Calm Calm -- 29.73 in1006.8 mb 0.00 in0.0 mm 0.00 in0.0 mm 0.00 in0.0 mm
05:34 AM 30.4°F-0.9°C 26.7°F-2.9°C 86% Calm Calm -- 29.73 in1006.8 mb 0.00 in0.0 mm 0.00 in0.0 mm 0.00 in0.0 mm
05:36 AM 30.4°F-0.9°C 26.7°F-2.9°C 86% Calm Calm 1.6 mph2.6 kmh 29.73 in1006.8 mb 0.00 in0.0 mm 0.00 in0.0 mm 0.00 in0.0 mm
05:38 AM 30.4°F-0.9°C 26.7°F-2.9°C 86% 1.6 mph W2.6 kmh W 3.1 mph5.0 kmh 29.74 in1007.1 mb 0.00 in0.0 mm 0.00 in0.0 mm 0.00 in0.0 mm
05:40 AM 30.4°F-0.9°C 26.7°F-2.9°C 86% 2.2 mph SW3.5 kmh SW 3.1 mph5.0 kmh 29.73 in1006.8 mb 0.00 in0.0 mm 0.00 in0.0 mm 0.00 in0.0 mm
05:42 AM 30.4°F-0.9°C 26.7°F-2.9°C 86% 2.2 mph S3.5 kmh S 3.1 mph5.0 kmh 29.74 in1007.1 mb 0.00 in0.0 mm 0.00 in0.0 mm 0.00 in0.0 mm
05:44 AM 30.4°F-0.9°C 26.7°F-2.9°C 86% 3.1 mph S5.0 kmh S 3.1 mph5.0 kmh 29.74 in1007.1 mb 0.00 in0.0 mm 0.00 in0.0 mm 0.00 in0.0 mm
05:46 AM 30.4°F-0.9°C 26.7°F-2.9°C 86% 2.2 mph S3.5 kmh S 3.1 mph5.0 kmh 29.74 in1007.1 mb 0.00 in0.0 mm 0.00 in0.0 mm 0.00 in0.0 mm
05:48 AM 30.6°F-0.8°C 26.9°F-2.8°C 86% 2.2 mph S3.5 kmh S 3.1 mph5.0 kmh 29.73 in1006.8 mb 0.00 in0.0 mm 0.00 in0.0 mm 0.00 in0.0 mm
05:50 AM 30.7°F-0.7°C 27.1°F-2.7°C 86% 0.7 mph SSE1.1 kmh SSE 1.6 mph2.6 kmh 29.73 in1006.8 mb 0.00 in0.0 mm 0.00 in0.0 mm 0.00 in0.0 mm
05:52 AM 30.7°F-0.7°C 27.1°F-2.7°C 86% 1.6 mph S2.6 kmh S 2.2 mph3.5 kmh 29.73 in1006.8 mb 0.00 in0.0 mm 0.00 in0.0 mm 0.00 in0.0 mm
05:54 AM 30.7°F-0.7°C 27.1°F-2.7°C 86% 4.5 mph E7.2 kmh E 5.4 mph8.7 kmh 29.74 in1007.1 mb 0.00 in0.0 mm 0.00 in0.0 mm 0.00 in0.0 mm
05:56 AM 30.9°F-0.6°C 27.2°F-2.7°C 86% 7.6 mph E12.2 kmh E 9.2 mph14.8 kmh 29.74 in1007.1 mb 0.00 in0.0 mm 0.00 in0.0 mm 0.00 in0.0 mm
05:58 AM 31.6°F-0.2°C 28.2°F-2.1°C 87% 6.9 mph E11.1 kmh E 8.3 mph13.4 kmh 29.73 in1006.8 mb 0.00 in0.0 mm 0.00 in0.0 mm 0.00 in0.0 mm
06:00 AM 32.0°F0.0°C 28.6°F-1.9°C 87% 6.9 mph E11.1 kmh E 8.3 mph13.4 kmh 29.74 in1007.1 mb 0.00 in0.0 mm 0.00 in0.0 mm 0.00 in0.0 mm
06:02 AM 32.5°F0.3°C 29.1°F-1.6°C 87% 5.4 mph E8.7 kmh E 6.9 mph11.1 kmh 29.74 in1007.1 mb 0.00 in0.0 mm 0.00 in0.0 mm 0.00 in0.0 mm
06:04 AM 32.7°F0.4°C 29.3°F-1.5°C 87% 5.4 mph E8.7 kmh E 6.9 mph11.1 kmh 29.73 in1006.8 mb 0.00 in0.0 mm 0.00 in0.0 mm 0.00 in0.0 mm
06:06 AM 33.1°F0.6°C 29.9°F-1.2°C 88% 6.9 mph E11.1 kmh E 7.6 mph12.2 kmh 29.73 in1006.8 mb 0.00 in0.0 mm 0.00 in0.0 mm 0.00 in0.0 mm
06:08 AM 33.4°F0.8°C 30.3°F-0.9°C 88% 6.0 mph E9.7 kmh E 7.6 mph12.2 kmh 29.73 in1006.8 mb 0.00 in0.0 mm 0.00 in0.0 mm 0.00 in0.0 mm
06:10 AM 33.6°F0.9°C 30.5°F-0.8°C 88% 6.0 mph E9.7 kmh E 7.6 mph12.2 kmh 29.73 in1006.8 mb 0.00 in0.0 mm 0.00 in0.0 mm 0.00 in0.0 mm
06:12 AM 33.6°F0.9°C 30.5°F-0.8°C 88% 3.1 mph S5.0 kmh S 3.8 mph6.1 kmh 29.73 in1006.8 mb 0.00 in0.0 mm 0.00 in0.0 mm 0.00 in0.0 mm
06:14 AM 33.6°F0.9°C 30.5°F-0.8°C 88% 1.6 mph S2.6 kmh S 1.6 mph2.6 kmh 29.73 in1006.8 mb 0.00 in0.0 mm 0.00 in0.0 mm 0.00 in0.0 mm
06:16 AM 33.6°F0.9°C 30.5°F-0.8°C 88% 0.7 mph S1.1 kmh S 1.6 mph2.6 kmh 29.73 in1006.8 mb 0.00 in0.0 mm 0.00 in0.0 mm 0.00 in0.0 mm
06:18 AM 33.4°F0.8°C 30.3°F-0.9°C 88% 0.7 mph S1.1 kmh S 1.6 mph2.6 kmh 29.72 in1006.4 mb 0.00 in0.0 mm 0.00 in0.0 mm 0.00 in0.0 mm
06:20 AM 33.4°F0.8°C 30.3°F-0.9°C 88% 0.7 mph S1.1 kmh S 0.7 mph1.1 kmh 29.72 in1006.4 mb 0.00 in0.0 mm 0.00 in0.0 mm 0.00 in0.0 mm
06:22 AM 33.3°F0.7°C 30.1°F-1.1°C 88% 0.7 mph S1.1 kmh S 1.6 mph2.6 kmh 29.72 in1006.4 mb 0.00 in0.0 mm 0.00 in0.0 mm 0.00 in0.0 mm
06:24 AM 33.1°F0.6°C 29.9°F-1.2°C 88% 0.7 mph S1.1 kmh S 1.6 mph2.6 kmh 29.73 in1006.8 mb 0.00 in0.0 mm 0.00 in0.0 mm 0.00 in0.0 mm
06:26 AM 32.9°F0.5°C 29.7°F-1.3°C 88% 0.7 mph S1.1 kmh S 1.6 mph2.6 kmh 29.72 in1006.4 mb 0.00 in0.0 mm 0.00 in0.0 mm 0.00 in0.0 mm
06:28 AM 32.9°F0.5°C 29.7°F-1.3°C 88% 0.7 mph S1.1 kmh S 1.6 mph2.6 kmh 29.73 in1006.8 mb 0.00 in0.0 mm 0.00 in0.0 mm 0.00 in0.0 mm
06:30 AM 32.7°F0.4°C 29.6°F-1.3°C 88% 0.7 mph SE1.1 kmh SE 2.2 mph3.5 kmh 29.73 in1006.8 mb 0.00 in0.0 mm 0.00 in0.0 mm 0.00 in0.0 mm
06:32 AM 32.7°F0.4°C 29.6°F-1.3°C 88% 3.1 mph SE5.0 kmh SE 3.8 mph6.1 kmh 29.73 in1006.8 mb 0.00 in0.0 mm 0.00 in0.0 mm 0.00 in0.0 mm
06:34 AM 32.7°F0.4°C 29.6°F-1.3°C 88% 3.8 mph SE6.1 kmh SE 4.5 mph7.2 kmh 29.73 in1006.8 mb 0.00 in0.0 mm 0.00 in0.0 mm 0.00 in0.0 mm
06:36 AM 32.5°F0.3°C 29.4°F-1.4°C 88% 3.1 mph SE5.0 kmh SE 3.8 mph6.1 kmh 29.72 in1006.4 mb 0.00 in0.0 mm 0.00 in0.0 mm 0.00 in0.0 mm
06:38 AM 32.5°F0.3°C 29.4°F-1.4°C 88% 1.6 mph SE2.6 kmh SE 1.6 mph2.6 kmh 29.73 in1006.8 mb 0.00 in0.0 mm 0.00 in0.0 mm 0.00 in0.0 mm
06:40 AM 32.5°F0.3°C 29.4°F-1.4°C 88% 1.6 mph SE2.6 kmh SE 2.2 mph3.5 kmh 29.73 in1006.8 mb 0.00 in0.0 mm 0.00 in0.0 mm 0.00 in0.0 mm
06:42 AM 32.5°F0.3°C 29.4°F-1.4°C 88% Calm Calm 0.7 mph1.1 kmh 29.73 in1006.8 mb 0.00 in0.0 mm 0.00 in0.0 mm 0.00 in0.0 mm
06:44 AM 32.5°F0.3°C 29.4°F-1.4°C 88% 0.7 mph SE1.1 kmh SE 1.6 mph2.6 kmh 29.73 in1006.8 mb 0.00 in0.0 mm 0.00 in0.0 mm 0.00 in0.0 mm
06:46 AM 32.5°F0.3°C 29.4°F-1.4°C 88% 0.7 mph SE1.1 kmh SE 1.6 mph2.6 kmh 29.73 in1006.8 mb 0.00 in0.0 mm 0.00 in0.0 mm 0.00 in0.0 mm
06:48 AM 32.5°F0.3°C 29.4°F-1.4°C 88% 3.8 mph E6.1 kmh E 5.4 mph8.7 kmh 29.73 in1006.8 mb 0.00 in0.0 mm 0.00 in0.0 mm 0.00 in0.0 mm
06:50 AM 32.5°F0.3°C 29.4°F-1.4°C 88% 4.5 mph SE7.2 kmh SE 5.4 mph8.7 kmh 29.73 in1006.8 mb 0.00 in0.0 mm 0.00 in0.0 mm 0.00 in0.0 mm
06:52 AM 32.7°F0.4°C 29.6°F-1.3°C 88% 5.4 mph SE8.7 kmh SE 6.9 mph11.1 kmh 29.73 in1006.8 mb 0.00 in0.0 mm 0.00 in0.0 mm 0.00 in0.0 mm
06:54 AM 32.9°F0.5°C 29.7°F-1.3°C 88% 4.5 mph E7.2 kmh E 6.0 mph9.7 kmh 29.73 in1006.8 mb 0.00 in0.0 mm 0.00 in0.0 mm 0.00 in0.0 mm
06:56 AM 33.1°F0.6°C 29.9°F-1.2°C 88% 6.9 mph E11.1 kmh E 7.6 mph12.2 kmh 29.73 in1006.8 mb 0.00 in0.0 mm 0.00 in0.0 mm 0.00 in0.0 mm
06:58 AM 33.4°F0.8°C 30.6°F-0.8°C 89% 6.0 mph E9.7 kmh E 7.6 mph12.2 kmh 29.73 in1006.8 mb 0.00 in0.0 mm 0.00 in0.0 mm 0.00 in0.0 mm
07:00 AM 33.4°F0.8°C 30.6°F-0.8°C 89% 5.4 mph E8.7 kmh E 6.0 mph9.7 kmh 29.72 in1006.4 mb 0.00 in0.0 mm 0.00 in0.0 mm 0.00 in0.0 mm
07:02 AM 33.6°F0.9°C 30.7°F-0.7°C 89% 6.9 mph E11.1 kmh E 8.3 mph13.4 kmh 29.72 in1006.4 mb 0.00 in0.0 mm 0.00 in0.0 mm 0.00 in0.0 mm
07:04 AM 33.8°F1.0°C 30.9°F-0.6°C 89% 6.9 mph E11.1 kmh E 7.6 mph12.2 kmh 29.72 in1006.4 mb 0.00 in0.0 mm 0.00 in0.0 mm 0.00 in0.0 mm
07:06 AM 33.8°F1.0°C 30.9°F-0.6°C 89% 6.0 mph E9.7 kmh E 6.9 mph11.1 kmh 29.72 in1006.4 mb 0.00 in0.0 mm 0.00 in0.0 mm 0.00 in0.0 mm
07:08 AM 33.8°F1.0°C 30.9°F-0.6°C 89% 6.9 mph E11.1 kmh E 7.6 mph12.2 kmh 29.72 in1006.4 mb 0.00 in0.0 mm 0.00 in0.0 mm 0.00 in0.0 mm
07:10 AM 34.0°F1.1°C 31.1°F-0.5°C 89% 6.9 mph E11.1 kmh E 7.6 mph12.2 kmh 29.72 in1006.4 mb 0.00 in0.0 mm 0.00 in0.0 mm 0.00 in0.0 mm
07:12 AM 34.0°F1.1°C 31.1°F-0.5°C 89% 7.6 mph E12.2 kmh E 8.3 mph13.4 kmh 29.72 in1006.4 mb 0.00 in0.0 mm 0.00 in0.0 mm 0.00 in0.0 mm
07:14 AM 34.2°F1.2°C 31.3°F-0.4°C 89% 6.0 mph E9.7 kmh E 6.9 mph11.1 kmh 29.72 in1006.4 mb 0.00 in0.0 mm 0.00 in0.0 mm 0.00 in0.0 mm
07:16 AM 34.2°F1.2°C 31.3°F-0.4°C 89% 6.0 mph E9.7 kmh E 6.9 mph11.1 kmh 29.72 in1006.4 mb 0.00 in0.0 mm 0.00 in0.0 mm 0.00 in0.0 mm
07:18 AM 34.2°F1.2°C 31.3°F-0.4°C 89% 5.4 mph E8.7 kmh E 6.9 mph11.1 kmh 29.72 in1006.4 mb 0.00 in0.0 mm 0.00 in0.0 mm 0.00 in0.0 mm
07:20 AM 34.2°F1.2°C 31.3°F-0.4°C 89% 5.4 mph E8.7 kmh E 6.9 mph11.1 kmh 29.72 in1006.4 mb 0.00 in0.0 mm 0.00 in0.0 mm 0.00 in0.0 mm
07:22 AM 34.2°F1.2°C 31.3°F-0.4°C 89% 7.6 mph E12.2 kmh E 9.2 mph14.8 kmh 29.72 in1006.4 mb 0.00 in0.0 mm 0.00 in0.0 mm 0.00 in0.0 mm
07:24 AM 34.2°F1.2°C 31.3°F-0.4°C 89% 6.0 mph ENE9.7 kmh ENE 6.9 mph11.1 kmh 29.72 in1006.4 mb 0.00 in0.0 mm 0.00 in0.0 mm 0.00 in0.0 mm
07:26 AM 34.3°F1.3°C 31.4°F-0.3°C 89% 6.0 mph ENE9.7 kmh ENE 7.6 mph12.2 kmh 29.71 in1006.1 mb 0.00 in0.0 mm 0.00 in0.0 mm 0.00 in0.0 mm
07:28 AM 34.3°F1.3°C 31.4°F-0.3°C 89% 6.0 mph ENE9.7 kmh ENE 6.9 mph11.1 kmh 29.72 in1006.4 mb 0.00 in0.0 mm 0.00 in0.0 mm 0.00 in0.0 mm
07:30 AM 34.3°F1.3°C 31.4°F-0.3°C 89% 7.6 mph SE12.2 kmh SE 8.3 mph13.4 kmh 29.71 in1006.1 mb 0.00 in0.0 mm 0.00 in0.0 mm 0.00 in0.0 mm
07:32 AM 34.3°F1.3°C 31.4°F-0.3°C 89% 5.4 mph SE8.7 kmh SE 6.9 mph11.1 kmh 29.72 in1006.4 mb 0.00 in0.0 mm 0.00 in0.0 mm 0.00 in0.0 mm
07:34 AM 34.2°F1.2°C 31.3°F-0.4°C 89% 5.4 mph SE8.7 kmh SE 6.9 mph11.1 kmh 29.72 in1006.4 mb 0.00 in0.0 mm 0.00 in0.0 mm 0.00 in0.0 mm
07:36 AM 34.2°F1.2°C 31.3°F-0.4°C 89% 6.9 mph SE11.1 kmh SE 8.3 mph13.4 kmh 29.71 in1006.1 mb 0.00 in0.0 mm 0.00 in0.0 mm 0.00 in0.0 mm
07:38 AM 34.2°F1.2°C 31.3°F-0.4°C 89% 6.0 mph SE9.7 kmh SE 6.9 mph11.1 kmh 29.72 in1006.4 mb 0.00 in0.0 mm 0.00 in0.0 mm 0.00 in0.0 mm
07:40 AM 34.2°F1.2°C 31.3°F-0.4°C 89% 5.4 mph SE8.7 kmh SE 6.0 mph9.7 kmh 29.73 in1006.8 mb 0.00 in0.0 mm 0.00 in0.0 mm 0.00 in0.0 mm
07:42 AM 34.0°F1.1°C 31.1°F-0.5°C 89% 4.5 mph SE7.2 kmh SE 5.4 mph8.7 kmh 29.72 in1006.4 mb 0.00 in0.0 mm 0.00 in0.0 mm 0.00 in0.0 mm
07:44 AM 34.0°F1.1°C 31.1°F-0.5°C 89% 3.8 mph SE6.1 kmh SE 4.5 mph7.2 kmh 29.71 in1006.1 mb 0.00 in0.0 mm 0.00 in0.0 mm 0.00 in0.0 mm
07:46 AM 34.0°F1.1°C 31.1°F-0.5°C 89% 6.0 mph SE9.7 kmh SE 6.9 mph11.1 kmh 29.72 in1006.4 mb 0.00 in0.0 mm 0.00 in0.0 mm 0.00 in0.0 mm
07:48 AM 34.0°F1.1°C 31.1°F-0.5°C 89% 6.9 mph SE11.1 kmh SE 8.3 mph13.4 kmh 29.72 in1006.4 mb 0.00 in0.0 mm 0.00 in0.0 mm 0.00 in0.0 mm
07:50 AM 34.0°F1.1°C 31.1°F-0.5°C 89% 6.9 mph ENE11.1 kmh ENE 8.3 mph13.4 kmh 29.71 in1006.1 mb 0.00 in0.0 mm 0.00 in0.0 mm 0.00 in0.0 mm
07:52 AM 34.0°F1.1°C 31.1°F-0.5°C 89% 6.9 mph ENE11.1 kmh ENE 7.6 mph12.2 kmh 29.71 in1006.1 mb 0.00 in0.0 mm 0.00 in0.0 mm 0.00 in0.0 mm
07:54 AM 34.0°F1.1°C 31.1°F-0.5°C 89% 6.9 mph E11.1 kmh E 7.6 mph12.2 kmh 29.71 in1006.1 mb 0.00 in0.0 mm 0.00 in0.0 mm 0.00 in0.0 mm
07:56 AM 34.0°F1.1°C 31.1°F-0.5°C 89% 6.0 mph ENE9.7 kmh ENE 6.9 mph11.1 kmh 29.71 in1006.1 mb 0.00 in0.0 mm 0.00 in0.0 mm 0.00 in0.0 mm
07:58 AM 34.2°F1.2°C 31.3°F-0.4°C 89% 6.0 mph ENE9.7 kmh ENE 6.9 mph11.1 kmh 29.72 in1006.4 mb 0.00 in0.0 mm 0.00 in0.0 mm 0.00 in0.0 mm
08:00 AM 34.2°F1.2°C 31.3°F-0.4°C 89% 6.9 mph E11.1 kmh E 7.6 mph12.2 kmh 29.72 in1006.4 mb 0.00 in0.0 mm 0.00 in0.0 mm 0.00 in0.0 mm
08:02 AM 34.2°F1.2°C 31.3°F-0.4°C 89% 6.9 mph E11.1 kmh E 7.6 mph12.2 kmh 29.71 in1006.1 mb 0.00 in0.0 mm 0.00 in0.0 mm 0.00 in0.0 mm
08:04 AM 34.2°F1.2°C 31.3°F-0.4°C 89% 6.9 mph E11.1 kmh E 7.6 mph12.2 kmh 29.72 in1006.4 mb 0.00 in0.0 mm 0.00 in0.0 mm 0.00 in0.0 mm
08:06 AM 34.2°F1.2°C 31.3°F-0.4°C 89% 6.9 mph E11.1 kmh E 7.6 mph12.2 kmh 29.71 in1006.1 mb 0.00 in0.0 mm 0.00 in0.0 mm 0.00 in0.0 mm
08:08 AM 34.3°F1.3°C 31.4°F-0.3°C 89% 7.6 mph SE12.2 kmh SE 8.3 mph13.4 kmh 29.71 in1006.1 mb 0.00 in0.0 mm 0.00 in0.0 mm 0.00 in0.0 mm
08:10 AM 34.3°F1.3°C 31.4°F-0.3°C 89% 6.9 mph SE11.1 kmh SE 8.3 mph13.4 kmh 29.71 in1006.1 mb 0.00 in0.0 mm 0.00 in0.0 mm 0.00 in0.0 mm
08:12 AM 34.5°F1.4°C 31.6°F-0.2°C 89% 6.9 mph SE11.1 kmh SE 7.6 mph12.2 kmh 29.71 in1006.1 mb 0.00 in0.0 mm 0.00 in0.0 mm 0.00 in0.0 mm
08:14 AM 34.5°F1.4°C 31.6°F-0.2°C 89% 8.3 mph SE13.4 kmh SE 9.2 mph14.8 kmh 29.71 in1006.1 mb 0.00 in0.0 mm 0.00 in0.0 mm 0.00 in0.0 mm
08:16 AM 34.5°F1.4°C 31.6°F-0.2°C 89% 8.3 mph SE13.4 kmh SE 9.8 mph15.8 kmh 29.71 in1006.1 mb 0.00 in0.0 mm 0.00 in0.0 mm 0.00 in0.0 mm
08:18 AM 34.7°F1.5°C 31.8°F-0.1°C 89% 5.4 mph SE8.7 kmh SE 6.0 mph9.7 kmh 29.71 in1006.1 mb 0.00 in0.0 mm 0.00 in0.0 mm 0.00 in0.0 mm
08:20 AM 34.7°F1.5°C 31.8°F-0.1°C 89% 1.6 mph SE2.6 kmh SE 2.2 mph3.5 kmh 29.71 in1006.1 mb 0.00 in0.0 mm 0.00 in0.0 mm 0.00 in0.0 mm
08:22 AM 34.7°F1.5°C 31.8°F-0.1°C 89% 5.4 mph SE8.7 kmh SE 6.9 mph11.1 kmh 29.71 in1006.1 mb 0.00 in0.0 mm 0.00 in0.0 mm 0.00 in0.0 mm
08:24 AM 34.7°F1.5°C 31.5°F-0.3°C 88% 2.2 mph SE3.5 kmh SE 3.1 mph5.0 kmh 29.71 in1006.1 mb 0.00 in0.0 mm 0.00 in0.0 mm 0.00 in0.0 mm
08:27 AM 34.7°F1.5°C 31.5°F-0.3°C 88% 1.6 mph SE2.6 kmh SE 3.1 mph5.0 kmh 29.71 in1006.1 mb 0.00 in0.0 mm 0.00 in0.0 mm 0.00 in0.0 mm
08:28 AM 34.7°F1.5°C 31.5°F-0.3°C 88% 3.1 mph SE5.0 kmh SE 4.5 mph7.2 kmh 29.71 in1006.1 mb 0.00 in0.0 mm 0.00 in0.0 mm 0.00 in0.0 mm
08:30 AM 34.9°F1.6°C 31.7°F-0.2°C 88% 4.5 mph SE7.2 kmh SE 5.4 mph8.7 kmh 29.71 in1006.1 mb 0.00 in0.0 mm 0.00 in0.0 mm 0.00 in0.0 mm
08:32 AM 34.9°F1.6°C 31.7°F-0.2°C 88% 6.9 mph E11.1 kmh E 7.6 mph12.2 kmh 29.71 in1006.1 mb 0.00 in0.0 mm 0.00 in0.0 mm 0.00 in0.0 mm
08:35 AM 34.9°F1.6°C 31.7°F-0.2°C 88% 8.3 mph SE13.4 kmh SE 9.2 mph14.8 kmh 29.71 in1006.1 mb 0.00 in0.0 mm 0.00 in0.0 mm 0.00 in0.0 mm
08:37 AM 35.1°F1.7°C 31.9°F-0.1°C 88% 9.2 mph SE14.8 kmh SE 9.8 mph15.8 kmh 29.71 in1006.1 mb 0.00 in0.0 mm 0.00 in0.0 mm 0.00 in0.0 mm
08:39 AM 35.1°F1.7°C 31.9°F-0.1°C 88% 7.6 mph ENE12.2 kmh ENE 9.2 mph14.8 kmh 29.71 in1006.1 mb 0.00 in0.0 mm 0.00 in0.0 mm 0.00 in0.0 mm
08:41 AM 35.2°F1.8°C 32.1°F0.1°C 88% 8.3 mph ENE13.4 kmh ENE 9.2 mph14.8 kmh 29.71 in1006.1 mb 0.00 in0.0 mm 0.00 in0.0 mm 0.00 in0.0 mm
08:43 AM 35.2°F1.8°C 32.1°F0.1°C 88% 9.8 mph SE15.8 kmh SE 10.7 mph17.2 kmh 29.72 in1006.4 mb 0.00 in0.0 mm 0.00 in0.0 mm 0.00 in0.0 mm
08:45 AM 35.2°F1.8°C 32.1°F0.1°C 88% 9.8 mph E15.8 kmh E 10.7 mph17.2 kmh 29.71 in1006.1 mb 0.00 in0.0 mm 0.00 in0.0 mm 0.00 in0.0 mm
08:47 AM 35.2°F1.8°C 32.1°F0.1°C 88% 8.3 mph E13.4 kmh E 9.2 mph14.8 kmh 29.71 in1006.1 mb 0.00 in0.0 mm 0.00 in0.0 mm 0.00 in0.0 mm
08:49 AM 35.4°F1.9°C 31.9°F-0.1°C 87% 10.7 mph E17.2 kmh E 11.4 mph18.3 kmh 29.72 in1006.4 mb 0.00 in0.0 mm 0.00 in0.0 mm 0.00 in0.0 mm
08:51 AM 35.6°F2.0°C 32.1°F0.1°C 87% 9.2 mph E14.8 kmh E 11.4 mph18.3 kmh 29.71 in1006.1 mb 0.00 in0.0 mm 0.00 in0.0 mm 0.00 in0.0 mm
08:53 AM 35.6°F2.0°C 32.1°F0.1°C 87% 9.2 mph E14.8 kmh E 10.7 mph17.2 kmh 29.71 in1006.1 mb 0.00 in0.0 mm 0.00 in0.0 mm 0.00 in0.0 mm
08:55 AM 35.8°F2.1°C 32.3°F0.2°C 87% 9.2 mph E14.8 kmh E 9.8 mph15.8 kmh 29.71 in1006.1 mb 0.00 in0.0 mm 0.00 in0.0 mm 0.00 in0.0 mm
08:57 AM 36.1°F2.3°C 32.7°F0.4°C 87% 10.7 mph E17.2 kmh E 12.1 mph19.5 kmh 29.71 in1006.1 mb 0.00 in0.0 mm 0.00 in0.0 mm 0.00 in0.0 mm
08:59 AM 36.3°F2.4°C 32.8°F0.4°C 87% 8.3 mph E13.4 kmh E 9.8 mph15.8 kmh 29.71 in1006.1 mb 0.00 in0.0 mm 0.00 in0.0 mm 0.00 in0.0 mm
09:01 AM 36.5°F2.5°C 32.7°F0.4°C 86% 9.8 mph E15.8 kmh E 10.7 mph17.2 kmh 29.71 in1006.1 mb 0.00 in0.0 mm 0.00 in0.0 mm 0.00 in0.0 mm
09:03 AM 36.7°F2.6°C 32.9°F0.5°C 86% 9.2 mph E14.8 kmh E 10.7 mph17.2 kmh 29.71 in1006.1 mb 0.00 in0.0 mm 0.00 in0.0 mm 0.00 in0.0 mm
09:05 AM 36.7°F2.6°C 32.6°F0.3°C 85% 8.3 mph E13.4 kmh E 9.2 mph14.8 kmh 29.71 in1006.1 mb 0.00 in0.0 mm 0.00 in0.0 mm 0.00 in0.0 mm
09:07 AM 36.9°F2.7°C 32.8°F0.4°C 85% 9.2 mph E14.8 kmh E 11.4 mph18.3 kmh 29.71 in1006.1 mb 0.00 in0.0 mm 0.00 in0.0 mm 0.00 in0.0 mm
09:09 AM 37.0°F2.8°C 32.7°F0.4°C 84% 9.8 mph E15.8 kmh E 11.4 mph18.3 kmh 29.71 in1006.1 mb 0.00 in0.0 mm 0.00 in0.0 mm 0.00 in0.0 mm
09:11 AM 37.4°F3.0°C 33.0°F0.6°C 84% 8.3 mph E13.4 kmh E 9.8 mph15.8 kmh 29.71 in1006.1 mb 0.00 in0.0 mm 0.00 in0.0 mm 0.00 in0.0 mm
09:13 AM 37.4°F3.0°C 33.0°F0.6°C 84% 9.8 mph E15.8 kmh E 11.4 mph18.3 kmh 29.70 in1005.8 mb 0.00 in0.0 mm 0.00 in0.0 mm 0.00 in0.0 mm
09:15 AM 37.6°F3.1°C 32.9°F0.5°C 83% 10.7 mph E17.2 kmh E 13.0 mph20.9 kmh 29.71 in1006.1 mb 0.00 in0.0 mm 0.00 in0.0 mm 0.00 in0.0 mm
09:17 AM 37.8°F3.2°C 33.1°F0.6°C 83% 9.8 mph E15.8 kmh E 10.7 mph17.2 kmh 29.71 in1006.1 mb 0.00 in0.0 mm 0.00 in0.0 mm 0.00 in0.0 mm
09:19 AM 37.8°F3.2°C 32.8°F0.4°C 82% 10.7 mph ENE17.2 kmh ENE 10.7 mph17.2 kmh 29.71 in1006.1 mb 0.00 in0.0 mm 0.00 in0.0 mm 0.00 in0.0 mm
09:21 AM 37.9°F3.3°C 32.6°F0.3°C 81% 9.8 mph SE15.8 kmh SE 11.4 mph18.3 kmh 29.70 in1005.8 mb 0.00 in0.0 mm 0.00 in0.0 mm 0.00 in0.0 mm
09:23 AM 38.1°F3.4°C 32.8°F0.4°C 81% 8.3 mph SE13.4 kmh SE 9.8 mph15.8 kmh 29.71 in1006.1 mb 0.00 in0.0 mm 0.00 in0.0 mm 0.00 in0.0 mm
09:25 AM 38.3°F3.5°C 33.0°F0.6°C 81% 8.3 mph SSE13.4 kmh SSE 9.8 mph15.8 kmh 29.70 in1005.8 mb 0.00 in0.0 mm 0.00 in0.0 mm 0.00 in0.0 mm
09:27 AM 38.5°F3.6°C 32.9°F0.5°C 80% 8.3 mph SE13.4 kmh SE 9.8 mph15.8 kmh 29.70 in1005.8 mb 0.00 in0.0 mm 0.00 in0.0 mm 0.00 in0.0 mm
09:29 AM 38.5°F3.6°C 32.9°F0.5°C 80% 8.3 mph SE13.4 kmh SE 9.8 mph15.8 kmh 29.71 in1006.1 mb 0.00 in0.0 mm 0.00 in0.0 mm 0.00 in0.0 mm
09:31 AM 38.5°F3.6°C 32.9°F0.5°C 80% 9.2 mph SE14.8 kmh SE 10.7 mph17.2 kmh 29.71 in1006.1 mb 0.00 in0.0 mm 0.00 in0.0 mm 0.00 in0.0 mm
09:33 AM 38.5°F3.6°C 32.2°F0.1°C 78% 9.8 mph SE15.8 kmh SE 11.4 mph18.3 kmh 29.71 in1006.1 mb 0.00 in0.0 mm 0.00 in0.0 mm 0.00 in0.0 mm
09:35 AM 38.5°F3.6°C 31.9°F-0.1°C 77% 9.8 mph SE15.8 kmh SE 12.1 mph19.5 kmh 29.71 in1006.1 mb 0.00 in0.0 mm 0.00 in0.0 mm 0.00 in0.0 mm
09:37 AM 38.5°F3.6°C 31.9°F-0.1°C 77% 10.7 mph SE17.2 kmh SE 12.1 mph19.5 kmh 29.71 in1006.1 mb 0.00 in0.0 mm 0.00 in0.0 mm 0.00 in0.0 mm
09:39 AM 38.3°F3.5°C 31.4°F-0.3°C 76% 10.7 mph SE17.2 kmh SE 12.1 mph19.5 kmh 29.70 in1005.8 mb 0.00 in0.0 mm 0.00 in0.0 mm 0.00 in0.0 mm
09:41 AM 38.1°F3.4°C 30.9°F-0.6°C 75% 13.0 mph SE20.9 kmh SE 14.5 mph23.3 kmh 29.70 in1005.8 mb 0.00 in0.0 mm 0.00 in0.0 mm 0.00 in0.0 mm
09:43 AM 37.9°F3.3°C 30.7°F-0.7°C 75% 13.0 mph E20.9 kmh E 13.7 mph22.0 kmh 29.71 in1006.1 mb 0.00 in0.0 mm 0.00 in0.0 mm 0.00 in0.0 mm
09:45 AM 37.8°F3.2°C 30.6°F-0.8°C 75% 12.1 mph ENE19.5 kmh ENE 13.7 mph22.0 kmh 29.70 in1005.8 mb 0.00 in0.0 mm 0.00 in0.0 mm 0.00 in0.0 mm
09:47 AM 37.6°F3.1°C 30.4°F-0.9°C 75% 11.4 mph E18.3 kmh E 13.0 mph20.9 kmh 29.70 in1005.8 mb 0.00 in0.0 mm 0.00 in0.0 mm 0.00 in0.0 mm
09:49 AM 37.4°F3.0°C 30.2°F-1.0°C 75% 9.8 mph E15.8 kmh E 11.4 mph18.3 kmh 29.71 in1006.1 mb 0.00 in0.0 mm 0.00 in0.0 mm 0.00 in0.0 mm
09:51 AM 37.4°F3.0°C 30.5°F-0.8°C 76% 10.7 mph SE17.2 kmh SE 12.1 mph19.5 kmh 29.70 in1005.8 mb 0.00 in0.0 mm 0.00 in0.0 mm 0.00 in0.0 mm
09:53 AM 37.4°F3.0°C 30.9°F-0.6°C 77% 9.8 mph SE15.8 kmh SE 10.7 mph17.2 kmh 29.71 in1006.1 mb 0.00 in0.0 mm 0.00 in0.0 mm 0.00 in0.0 mm
09:55 AM 37.2°F2.9°C 30.7°F-0.7°C 77% 8.3 mph SE13.4 kmh SE 9.2 mph14.8 kmh 29.70 in1005.8 mb 0.00 in0.0 mm 0.00 in0.0 mm 0.00 in0.0 mm
09:57 AM 37.2°F2.9°C 30.7°F-0.7°C 77% 5.4 mph SE8.7 kmh SE 6.0 mph9.7 kmh 29.70 in1005.8 mb 0.00 in0.0 mm 0.00 in0.0 mm 0.00 in0.0 mm
09:59 AM 37.4°F3.0°C 31.2°F-0.4°C 78% 4.5 mph SE7.2 kmh SE 6.0 mph9.7 kmh 29.70 in1005.8 mb 0.00 in0.0 mm 0.00 in0.0 mm 0.00 in0.0 mm
10:01 AM 37.4°F3.0°C 31.2°F-0.4°C 78% 6.0 mph SE9.7 kmh SE 6.9 mph11.1 kmh 29.70 in1005.8 mb 0.00 in0.0 mm 0.00 in0.0 mm 0.00 in0.0 mm
10:03 AM 37.4°F3.0°C 31.2°F-0.4°C 78% 4.5 mph SE7.2 kmh SE 6.0 mph9.7 kmh 29.70 in1005.8 mb 0.00 in0.0 mm 0.00 in0.0 mm 0.00 in0.0 mm
10:05 AM 37.4°F3.0°C 31.2°F-0.4°C 78% 5.4 mph SE8.7 kmh SE 6.0 mph9.7 kmh 29.71 in1006.1 mb 0.00 in0.0 mm 0.00 in0.0 mm 0.00 in0.0 mm
10:07 AM 37.4°F3.0°C 31.2°F-0.4°C 78% 5.4 mph SE8.7 kmh SE 6.0 mph9.7 kmh 29.71 in1006.1 mb 0.00 in0.0 mm 0.00 in0.0 mm 0.00 in0.0 mm
10:09 AM 37.4°F3.0°C 31.2°F-0.4°C 78% 4.5 mph E7.2 kmh E 5.4 mph8.7 kmh 29.70 in1005.8 mb 0.00 in0.0 mm 0.00 in0.0 mm 0.00 in0.0 mm
10:11 AM 37.4°F3.0°C 31.2°F-0.4°C 78% 3.8 mph ENE6.1 kmh ENE 5.4 mph8.7 kmh 29.70 in1005.8 mb 0.00 in0.0 mm 0.00 in0.0 mm 0.00 in0.0 mm
10:13 AM 37.4°F3.0°C 31.2°F-0.4°C 78% 2.2 mph ENE3.5 kmh ENE 3.8 mph6.1 kmh 29.70 in1005.8 mb 0.00 in0.0 mm 0.00 in0.0 mm 0.00 in0.0 mm
10:15 AM 37.6°F3.1°C 31.7°F-0.2°C 79% 3.8 mph ENE6.1 kmh ENE 4.5 mph7.2 kmh 29.69 in1005.4 mb 0.00 in0.0 mm 0.00 in0.0 mm 0.00 in0.0 mm
10:17 AM 37.6°F3.1°C 31.7°F-0.2°C 79% 3.8 mph SE6.1 kmh SE 4.5 mph7.2 kmh 29.69 in1005.4 mb 0.00 in0.0 mm 0.00 in0.0 mm 0.00 in0.0 mm
10:19 AM 37.6°F3.1°C 31.7°F-0.2°C 79% 4.5 mph E7.2 kmh E 5.4 mph8.7 kmh 29.69 in1005.4 mb 0.00 in0.0 mm 0.00 in0.0 mm 0.00 in0.0 mm
10:21 AM 37.6°F3.1°C 31.7°F-0.2°C 79% 4.5 mph E7.2 kmh E 5.4 mph8.7 kmh 29.69 in1005.4 mb 0.00 in0.0 mm 0.00 in0.0 mm 0.00 in0.0 mm
10:23 AM 37.6°F3.1°C 31.7°F-0.2°C 79% 6.0 mph E9.7 kmh E 7.6 mph12.2 kmh 29.69 in1005.4 mb 0.00 in0.0 mm 0.00 in0.0 mm 0.00 in0.0 mm
10:25 AM 37.6°F3.1°C 31.7°F-0.2°C 79% 6.9 mph E11.1 kmh E 8.3 mph13.4 kmh 29.69 in1005.4 mb 0.00 in0.0 mm 0.00 in0.0 mm 0.00 in0.0 mm
10:27 AM 37.6°F3.1°C 31.7°F-0.2°C 79% 7.6 mph E12.2 kmh E 8.3 mph13.4 kmh 29.70 in1005.8 mb 0.00 in0.0 mm 0.00 in0.0 mm 0.00 in0.0 mm
10:29 AM 37.6°F3.1°C 31.4°F-0.3°C 78% 9.2 mph E14.8 kmh E 11.4 mph18.3 kmh 29.69 in1005.4 mb 0.00 in0.0 mm 0.00 in0.0 mm 0.00 in0.0 mm
10:31 AM 37.6°F3.1°C 31.7°F-0.2°C 79% 9.2 mph E14.8 kmh E 9.8 mph15.8 kmh 29.70 in1005.8 mb 0.00 in0.0 mm 0.00 in0.0 mm 0.00 in0.0 mm
10:33 AM 37.6°F3.1°C 31.4°F-0.3°C 78% 8.3 mph E13.4 kmh E 9.2 mph14.8 kmh 29.70 in1005.8 mb 0.00 in0.0 mm 0.00 in0.0 mm 0.00 in0.0 mm
10:35 AM 37.6°F3.1°C 31.4°F-0.3°C 78% 7.6 mph E12.2 kmh E 9.2 mph14.8 kmh 29.69 in1005.4 mb 0.00 in0.0 mm 0.00 in0.0 mm 0.00 in0.0 mm
10:37 AM 37.6°F3.1°C 31.4°F-0.3°C 78% 10.7 mph E17.2 kmh E 12.1 mph19.5 kmh 29.69 in1005.4 mb 0.00 in0.0 mm 0.00 in0.0 mm 0.00 in0.0 mm
10:39 AM 37.6°F3.1°C 31.4°F-0.3°C 78% 9.2 mph E14.8 kmh E 10.7 mph17.2 kmh 29.69 in1005.4 mb 0.00 in0.0 mm 0.00 in0.0 mm 0.00 in0.0 mm
10:41 AM 37.6°F3.1°C 31.4°F-0.3°C 78% 8.3 mph E13.4 kmh E 9.8 mph15.8 kmh 29.69 in1005.4 mb 0.00 in0.0 mm 0.00 in0.0 mm 0.00 in0.0 mm
10:43 AM 37.6°F3.1°C 31.4°F-0.3°C 78% 6.9 mph E11.1 kmh E 8.3 mph13.4 kmh 29.68 in1005.1 mb 0.00 in0.0 mm 0.00 in0.0 mm 0.00 in0.0 mm
10:45 AM 37.6°F3.1°C 31.7°F-0.2°C 79% 8.3 mph E13.4 kmh E 9.8 mph15.8 kmh 29.68 in1005.1 mb 0.00 in0.0 mm 0.00 in0.0 mm 0.00 in0.0 mm
10:47 AM 37.8°F3.2°C 31.8°F-0.1°C 79% 6.9 mph E11.1 kmh E 7.6 mph12.2 kmh 29.69 in1005.4 mb 0.00 in0.0 mm 0.00 in0.0 mm 0.00 in0.0 mm
10:49 AM 37.8°F3.2°C 31.8°F-0.1°C 79% 9.2 mph E14.8 kmh E 9.8 mph15.8 kmh 29.69 in1005.4 mb 0.00 in0.0 mm 0.00 in0.0 mm 0.00 in0.0 mm
10:51 AM 37.9°F3.3°C 32.0°F0.0°C 79% 8.3 mph E13.4 kmh E 10.7 mph17.2 kmh 29.69 in1005.4 mb 0.00 in0.0 mm 0.00 in0.0 mm 0.00 in0.0 mm
10:53 AM 38.1°F3.4°C 32.5°F0.3°C 80% 7.6 mph E12.2 kmh E 9.2 mph14.8 kmh 29.68 in1005.1 mb 0.00 in0.0 mm 0.00 in0.0 mm 0.00 in0.0 mm
10:55 AM 38.3°F3.5°C 32.7°F0.4°C 80% 7.6 mph E12.2 kmh E 8.3 mph13.4 kmh 29.68 in1005.1 mb 0.00 in0.0 mm 0.00 in0.0 mm 0.00 in0.0 mm
10:57 AM 38.5°F3.6°C 32.9°F0.5°C 80% 7.6 mph E12.2 kmh E 9.2 mph14.8 kmh 29.69 in1005.4 mb 0.00 in0.0 mm 0.00 in0.0 mm 0.00 in0.0 mm
10:59 AM 38.7°F3.7°C 32.7°F0.4°C 79% 9.2 mph ENE14.8 kmh ENE 9.8 mph15.8 kmh 29.69 in1005.4 mb 0.00 in0.0 mm 0.00 in0.0 mm 0.00 in0.0 mm
11:01 AM 38.7°F3.7°C 32.7°F0.4°C 79% 9.8 mph E15.8 kmh E 10.7 mph17.2 kmh 29.68 in1005.1 mb 0.00 in0.0 mm 0.00 in0.0 mm 0.00 in0.0 mm
11:03 AM 38.8°F3.8°C 32.9°F0.5°C 79% 10.7 mph ENE17.2 kmh ENE 11.4 mph18.3 kmh 29.68 in1005.1 mb 0.00 in0.0 mm 0.00 in0.0 mm 0.00 in0.0 mm
11:05 AM 38.8°F3.8°C 32.6°F0.3°C 78% 9.8 mph ENE15.8 kmh ENE 11.4 mph18.3 kmh 29.68 in1005.1 mb 0.00 in0.0 mm 0.00 in0.0 mm 0.00 in0.0 mm
11:07 AM 38.8°F3.8°C 32.3°F0.2°C 77% 9.8 mph E15.8 kmh E 10.7 mph17.2 kmh 29.69 in1005.4 mb 0.00 in0.0 mm 0.00 in0.0 mm 0.00 in0.0 mm
11:09 AM 38.8°F3.8°C 32.3°F0.2°C 77% 8.3 mph E13.4 kmh E 9.2 mph14.8 kmh 29.68 in1005.1 mb 0.00 in0.0 mm 0.00 in0.0 mm 0.00 in0.0 mm
11:11 AM 39.0°F3.9°C 32.4°F0.2°C 77% 9.8 mph E15.8 kmh E 11.4 mph18.3 kmh 29.68 in1005.1 mb 0.00 in0.0 mm 0.00 in0.0 mm 0.00 in0.0 mm
11:13 AM 39.0°F3.9°C 32.4°F0.2°C 77% 7.6 mph E12.2 kmh E 9.2 mph14.8 kmh 29.68 in1005.1 mb 0.00 in0.0 mm 0.00 in0.0 mm 0.00 in0.0 mm
11:15 AM 39.2°F4.0°C 32.3°F0.2°C 76% 7.6 mph E12.2 kmh E 9.8 mph15.8 kmh 29.68 in1005.1 mb 0.00 in0.0 mm 0.00 in0.0 mm 0.00 in0.0 mm
11:17 AM 39.2°F4.0°C 32.3°F0.2°C 76% 7.6 mph E12.2 kmh E 9.8 mph15.8 kmh 29.68 in1005.1 mb 0.00 in0.0 mm 0.00 in0.0 mm 0.00 in0.0 mm
11:19 AM 39.2°F4.0°C 32.3°F0.2°C 76% 9.2 mph E14.8 kmh E 10.7 mph17.2 kmh 29.68 in1005.1 mb 0.00 in0.0 mm 0.00 in0.0 mm 0.00 in0.0 mm
11:21 AM 39.2°F4.0°C 32.0°F0.0°C 75% 10.7 mph E17.2 kmh E 11.4 mph18.3 kmh 29.68 in1005.1 mb 0.00 in0.0 mm 0.00 in0.0 mm 0.00 in0.0 mm
11:23 AM 39.2°F4.0°C 32.0°F0.0°C 75% 9.8 mph E15.8 kmh E 11.4 mph18.3 kmh 29.68 in1005.1 mb 0.00 in0.0 mm 0.00 in0.0 mm 0.00 in0.0 mm
11:25 AM 39.2°F4.0°C 32.0°F0.0°C 75% 9.2 mph E14.8 kmh E 10.7 mph17.2 kmh 29.67 in1004.7 mb 0.00 in0.0 mm 0.00 in0.0 mm 0.00 in0.0 mm
11:27 AM 39.2°F4.0°C 32.0°F0.0°C 75% 11.4 mph E18.3 kmh E 14.5 mph23.3 kmh 29.67 in1004.7 mb 0.00 in0.0 mm 0.00 in0.0 mm 0.00 in0.0 mm
11:29 AM 39.2°F4.0°C 32.0°F0.0°C 75% 11.4 mph E18.3 kmh E 13.7 mph22.0 kmh 29.68 in1005.1 mb 0.00 in0.0 mm 0.00 in0.0 mm 0.00 in0.0 mm
11:31 AM 39.2°F4.0°C 32.0°F0.0°C 75% 12.1 mph E19.5 kmh E 14.5 mph23.3 kmh 29.67 in1004.7 mb 0.00 in0.0 mm 0.00 in0.0 mm 0.00 in0.0 mm
11:33 AM 39.2°F4.0°C 32.0°F0.0°C 75% 9.8 mph E15.8 kmh E 13.0 mph20.9 kmh 29.67 in1004.7 mb 0.00 in0.0 mm 0.00 in0.0 mm 0.00 in0.0 mm
11:36 AM 39.2°F4.0°C 32.0°F0.0°C 75% 9.2 mph E14.8 kmh E 11.4 mph18.3 kmh 29.67 in1004.7 mb 0.00 in0.0 mm 0.00 in0.0 mm 0.00 in0.0 mm
11:37 AM 39.2°F4.0°C 32.0°F0.0°C 75% 13.0 mph E20.9 kmh E 15.2 mph24.5 kmh 29.67 in1004.7 mb 0.00 in0.0 mm 0.00 in0.0 mm 0.00 in0.0 mm
11:39 AM 39.2°F4.0°C 32.0°F0.0°C 75% 10.7 mph E17.2 kmh E 13.0 mph20.9 kmh 29.66 in1004.4 mb 0.00 in0.0 mm 0.00 in0.0 mm 0.00 in0.0 mm
11:41 AM 39.2°F4.0°C 32.0°F0.0°C 75% 10.7 mph E17.2 kmh E 13.0 mph20.9 kmh 29.67 in1004.7 mb 0.00 in0.0 mm 0.00 in0.0 mm 0.00 in0.0 mm
11:43 AM 39.2°F4.0°C 32.3°F0.2°C 76% 12.1 mph E19.5 kmh E 14.5 mph23.3 kmh 29.66 in1004.4 mb 0.00 in0.0 mm 0.00 in0.0 mm 0.00 in0.0 mm
11:45 AM 39.2°F4.0°C 32.3°F0.2°C 76% 11.4 mph E18.3 kmh E 13.0 mph20.9 kmh 29.66 in1004.4 mb 0.00 in0.0 mm 0.00 in0.0 mm 0.00 in0.0 mm
11:47 AM 39.4°F4.1°C 32.5°F0.3°C 76% 13.0 mph E20.9 kmh E 13.7 mph22.0 kmh 29.66 in1004.4 mb 0.00 in0.0 mm 0.00 in0.0 mm 0.00 in0.0 mm
11:49 AM 39.4°F4.1°C 32.5°F0.3°C 76% 11.4 mph E18.3 kmh E 13.7 mph22.0 kmh 29.66 in1004.4 mb 0.00 in0.0 mm 0.00 in0.0 mm 0.00 in0.0 mm
11:51 AM 39.4°F4.1°C 32.5°F0.3°C 76% 12.1 mph E19.5 kmh E 13.0 mph20.9 kmh 29.66 in1004.4 mb 0.00 in0.0 mm 0.00 in0.0 mm 0.00 in0.0 mm
11:53 AM 39.6°F4.2°C 32.6°F0.3°C 76% 9.8 mph E15.8 kmh E 12.1 mph19.5 kmh 29.66 in1004.4 mb 0.00 in0.0 mm 0.00 in0.0 mm 0.00 in0.0 mm
11:55 AM 39.6°F4.2°C 32.6°F0.3°C 76% 12.1 mph SE19.5 kmh SE 14.5 mph23.3 kmh 29.65 in1004.1 mb 0.00 in0.0 mm 0.00 in0.0 mm 0.00 in0.0 mm
11:57 AM 39.6°F4.2°C 32.6°F0.3°C 76% 9.8 mph E15.8 kmh E 12.1 mph19.5 kmh 29.65 in1004.1 mb 0.00 in0.0 mm 0.00 in0.0 mm 0.00 in0.0 mm
11:59 AM 39.6°F4.2°C 32.6°F0.3°C 76% 12.1 mph ENE19.5 kmh ENE 13.7 mph22.0 kmh 29.66 in1004.4 mb 0.00 in0.0 mm 0.00 in0.0 mm 0.00 in0.0 mm
12:01 PM 39.6°F4.2°C 32.6°F0.3°C 76% 11.4 mph E18.3 kmh E 12.1 mph19.5 kmh 29.65 in1004.1 mb 0.00 in0.0 mm 0.00 in0.0 mm 0.00 in0.0 mm
12:03 PM 39.6°F4.2°C 32.6°F0.3°C 76% 10.7 mph E17.2 kmh E 12.1 mph19.5 kmh 29.65 in1004.1 mb 0.00 in0.0 mm 0.00 in0.0 mm 0.00 in0.0 mm
12:05 PM 39.6°F4.2°C 32.6°F0.3°C 76% 9.2 mph ENE14.8 kmh ENE 10.7 mph17.2 kmh 29.65 in1004.1 mb 0.00 in0.0 mm 0.00 in0.0 mm 0.00 in0.0 mm
12:07 PM 39.6°F4.2°C 32.6°F0.3°C 76% 12.1 mph E19.5 kmh E 13.0 mph20.9 kmh 29.65 in1004.1 mb 0.00 in0.0 mm 0.00 in0.0 mm 0.00 in0.0 mm
12:09 PM 39.6°F4.2°C 32.6°F0.3°C 76% 12.1 mph E19.5 kmh E 13.0 mph20.9 kmh 29.64 in1003.7 mb 0.00 in0.0 mm 0.00 in0.0 mm 0.00 in0.0 mm
12:11 PM 39.4°F4.1°C 32.5°F0.3°C 76% 13.0 mph E20.9 kmh E 14.5 mph23.3 kmh 29.65 in1004.1 mb 0.00 in0.0 mm 0.00 in0.0 mm 0.00 in0.0 mm
12:13 PM 39.4°F4.1°C 32.5°F0.3°C 76% 12.1 mph ENE19.5 kmh ENE 13.0 mph20.9 kmh 29.64 in1003.7 mb 0.00 in0.0 mm 0.00 in0.0 mm 0.00 in0.0 mm
12:15 PM 39.4°F4.1°C 32.1°F0.1°C 75% 11.4 mph ENE18.3 kmh ENE 12.1 mph19.5 kmh 29.65 in1004.1 mb 0.00 in0.0 mm 0.00 in0.0 mm 0.00 in0.0 mm
12:17 PM 39.2°F4.0°C 32.0°F0.0°C 75% 11.4 mph SE18.3 kmh SE 13.0 mph20.9 kmh 29.64 in1003.7 mb 0.00 in0.0 mm 0.00 in0.0 mm 0.00 in0.0 mm
12:19 PM 39.2°F4.0°C 32.3°F0.2°C 76% 9.2 mph SE14.8 kmh SE 11.4 mph18.3 kmh 29.64 in1003.7 mb 0.00 in0.0 mm 0.00 in0.0 mm 0.00 in0.0 mm
12:21 PM 39.2°F4.0°C 32.3°F0.2°C 76% 9.8 mph SE15.8 kmh SE 10.7 mph17.2 kmh 29.64 in1003.7 mb 0.00 in0.0 mm 0.00 in0.0 mm 0.00 in0.0 mm
12:23 PM 39.4°F4.1°C 32.5°F0.3°C 76% 9.2 mph ENE14.8 kmh ENE 9.8 mph15.8 kmh 29.64 in1003.7 mb 0.00 in0.0 mm 0.00 in0.0 mm 0.00 in0.0 mm
12:25 PM 39.4°F4.1°C 32.5°F0.3°C 76% 7.6 mph SE12.2 kmh SE 8.3 mph13.4 kmh 29.64 in1003.7 mb 0.00 in0.0 mm 0.00 in0.0 mm 0.00 in0.0 mm
12:27 PM 39.4°F4.1°C 32.5°F0.3°C 76% 6.9 mph SE11.1 kmh SE 7.6 mph12.2 kmh 29.63 in1003.4 mb 0.00 in0.0 mm 0.00 in0.0 mm 0.00 in0.0 mm
12:29 PM 39.6°F4.2°C 32.6°F0.3°C 76% 6.9 mph SE11.1 kmh SE 7.6 mph12.2 kmh 29.64 in1003.7 mb 0.00 in0.0 mm 0.00 in0.0 mm 0.00 in0.0 mm
12:31 PM 39.7°F4.3°C 32.8°F0.4°C 76% 5.4 mph S8.7 kmh S 6.0 mph9.7 kmh 29.64 in1003.7 mb 0.00 in0.0 mm 0.00 in0.0 mm 0.00 in0.0 mm
12:33 PM 39.7°F4.3°C 32.8°F0.4°C 76% 3.1 mph SE5.0 kmh SE 4.5 mph7.2 kmh 29.64 in1003.7 mb 0.00 in0.0 mm 0.00 in0.0 mm 0.00 in0.0 mm
12:35 PM 39.9°F4.4°C 33.0°F0.6°C 76% 3.8 mph S6.1 kmh S 4.5 mph7.2 kmh 29.64 in1003.7 mb 0.00 in0.0 mm 0.00 in0.0 mm 0.00 in0.0 mm
12:37 PM 40.1°F4.5°C 33.2°F0.7°C 76% 4.5 mph S7.2 kmh S 6.0 mph9.7 kmh 29.64 in1003.7 mb 0.00 in0.0 mm 0.00 in0.0 mm 0.00 in0.0 mm
12:39 PM 40.1°F4.5°C 32.8°F0.4°C 75% 4.5 mph S7.2 kmh S 6.0 mph9.7 kmh 29.63 in1003.4 mb 0.00 in0.0 mm 0.00 in0.0 mm 0.00 in0.0 mm
12:41 PM 40.3°F4.6°C 33.0°F0.6°C 75% 4.5 mph S7.2 kmh S 5.4 mph8.7 kmh 29.63 in1003.4 mb 0.00 in0.0 mm 0.00 in0.0 mm 0.00 in0.0 mm
12:44 PM 40.3°F4.6°C 33.0°F0.6°C 75% 3.1 mph SE5.0 kmh SE 4.5 mph7.2 kmh 29.63 in1003.4 mb 0.00 in0.0 mm 0.00 in0.0 mm 0.00 in0.0 mm
12:46 PM 40.3°F4.6°C 33.0°F0.6°C 75% 3.8 mph S6.1 kmh S 4.5 mph7.2 kmh 29.63 in1003.4 mb 0.00 in0.0 mm 0.00 in0.0 mm 0.00 in0.0 mm
12:48 PM 40.5°F4.7°C 32.8°F0.4°C 74% 1.6 mph SE2.6 kmh SE 2.2 mph3.5 kmh 29.63 in1003.4 mb 0.00 in0.0 mm 0.00 in0.0 mm 0.00 in0.0 mm
12:50 PM 40.5°F4.7°C 32.8°F0.4°C 74% 3.1 mph SE5.0 kmh SE 3.8 mph6.1 kmh 29.63 in1003.4 mb 0.00 in0.0 mm 0.00 in0.0 mm 0.00 in0.0 mm
12:52 PM 40.5°F4.7°C 32.8°F0.4°C 74% 6.9 mph ENE11.1 kmh ENE 7.6 mph12.2 kmh 29.63 in1003.4 mb 0.00 in0.0 mm 0.00 in0.0 mm 0.00 in0.0 mm
12:54 PM 40.3°F4.6°C 32.3°F0.2°C 73% 5.4 mph SE8.7 kmh SE 6.9 mph11.1 kmh 29.63 in1003.4 mb 0.00 in0.0 mm 0.00 in0.0 mm 0.00 in0.0 mm
12:56 PM 40.1°F4.5°C 32.2°F0.1°C 73% 5.4 mph E8.7 kmh E 6.0 mph9.7 kmh 29.63 in1003.4 mb 0.00 in0.0 mm 0.00 in0.0 mm 0.00 in0.0 mm
12:58 PM 40.1°F4.5°C 32.2°F0.1°C 73% 5.4 mph ENE8.7 kmh ENE 6.0 mph9.7 kmh 29.63 in1003.4 mb 0.00 in0.0 mm 0.00 in0.0 mm 0.00 in0.0 mm
01:00 PM 39.9°F4.4°C 32.0°F0.0°C 73% 6.0 mph E9.7 kmh E 6.9 mph11.1 kmh 29.62 in1003.0 mb 0.00 in0.0 mm 0.00 in0.0 mm 0.00 in0.0 mm
01:02 PM 39.9°F4.4°C 32.0°F0.0°C 73% 5.4 mph E8.7 kmh E 6.0 mph9.7 kmh 29.63 in1003.4 mb 0.00 in0.0 mm 0.00 in0.0 mm 0.00 in0.0 mm
01:04 PM 39.9°F4.4°C 32.0°F0.0°C 73% 6.0 mph SE9.7 kmh SE 6.9 mph11.1 kmh 29.62 in1003.0 mb 0.00 in0.0 mm 0.00 in0.0 mm 0.00 in0.0 mm
01:06 PM 39.9°F4.4°C 32.3°F0.2°C 74% 6.9 mph SE11.1 kmh SE 8.3 mph13.4 kmh 29.62 in1003.0 mb 0.00 in0.0 mm 0.00 in0.0 mm 0.00 in0.0 mm
01:08 PM 40.1°F4.5°C 32.5°F0.3°C 74% 8.3 mph SE13.4 kmh SE 9.2 mph14.8 kmh 29.61 in1002.7 mb 0.00 in0.0 mm 0.00 in0.0 mm 0.00 in0.0 mm
01:10 PM 40.1°F4.5°C 32.5°F0.3°C 74% 7.6 mph SE12.2 kmh SE 9.2 mph14.8 kmh 29.61 in1002.7 mb 0.00 in0.0 mm 0.00 in0.0 mm 0.00 in0.0 mm
01:12 PM 40.3°F4.6°C 32.7°F0.4°C 74% 7.6 mph SE12.2 kmh SE 8.3 mph13.4 kmh 29.61 in1002.7 mb 0.00 in0.0 mm 0.00 in0.0 mm 0.00 in0.0 mm
01:14 PM 40.3°F4.6°C 32.7°F0.4°C 74% 8.3 mph SE13.4 kmh SE 9.2 mph14.8 kmh 29.61 in1002.7 mb 0.00 in0.0 mm 0.00 in0.0 mm 0.00 in0.0 mm
01:16 PM 40.3°F4.6°C 32.7°F0.4°C 74% 6.9 mph SE11.1 kmh SE 7.6 mph12.2 kmh 29.62 in1003.0 mb 0.00 in0.0 mm 0.00 in0.0 mm 0.00 in0.0 mm
01:18 PM 40.3°F4.6°C 32.7°F0.4°C 74% 6.9 mph E11.1 kmh E 7.6 mph12.2 kmh 29.61 in1002.7 mb 0.00 in0.0 mm 0.00 in0.0 mm 0.00 in0.0 mm
01:20 PM 40.3°F4.6°C 32.7°F0.4°C 74% 6.0 mph E9.7 kmh E 6.9 mph11.1 kmh 29.61 in1002.7 mb 0.00 in0.0 mm 0.00 in0.0 mm 0.00 in0.0 mm
01:22 PM 40.3°F4.6°C 32.7°F0.4°C 74% 6.9 mph E11.1 kmh E 7.6 mph12.2 kmh 29.61 in1002.7 mb 0.00 in0.0 mm 0.00 in0.0 mm 0.00 in0.0 mm
01:24 PM 40.3°F4.6°C 32.7°F0.4°C 74% 6.9 mph E11.1 kmh E 7.6 mph12.2 kmh 29.61 in1002.7 mb 0.00 in0.0 mm 0.00 in0.0 mm 0.00 in0.0 mm
01:26 PM 40.3°F4.6°C 32.7°F0.4°C 74% 7.6 mph ENE12.2 kmh ENE 9.2 mph14.8 kmh 29.60 in1002.4 mb 0.00 in0.0 mm 0.00 in0.0 mm 0.00 in0.0 mm
01:28 PM 40.3°F4.6°C 32.7°F0.4°C 74% 6.9 mph SE11.1 kmh SE 7.6 mph12.2 kmh 29.61 in1002.7 mb 0.00 in0.0 mm 0.00 in0.0 mm 0.00 in0.0 mm
01:30 PM 40.1°F4.5°C 32.8°F0.4°C 75% 8.3 mph E13.4 kmh E 9.2 mph14.8 kmh 29.60 in1002.4 mb 0.00 in0.0 mm 0.00 in0.0 mm 0.00 in0.0 mm
01:32 PM 40.1°F4.5°C 32.8°F0.4°C 75% 9.8 mph ENE15.8 kmh ENE 12.1 mph19.5 kmh 29.60 in1002.4 mb 0.00 in0.0 mm 0.00 in0.0 mm 0.00 in0.0 mm
01:34 PM 40.1°F4.5°C 32.8°F0.4°C 75% 12.1 mph E19.5 kmh E 13.7 mph22.0 kmh 29.60 in1002.4 mb 0.00 in0.0 mm 0.00 in0.0 mm 0.00 in0.0 mm
01:36 PM 39.9°F4.4°C 32.7°F0.4°C 75% 12.1 mph E19.5 kmh E 13.7 mph22.0 kmh 29.60 in1002.4 mb 0.00 in0.0 mm 0.00 in0.0 mm 0.00 in0.0 mm
01:38 PM 40.1°F4.5°C 32.8°F0.4°C 75% 10.7 mph E17.2 kmh E 13.0 mph20.9 kmh 29.59 in1002.0 mb 0.00 in0.0 mm 0.00 in0.0 mm 0.00 in0.0 mm
01:40 PM 40.1°F4.5°C 32.8°F0.4°C 75% 9.8 mph E15.8 kmh E 11.4 mph18.3 kmh 29.59 in1002.0 mb 0.00 in0.0 mm 0.00 in0.0 mm 0.00 in0.0 mm
01:42 PM 40.1°F4.5°C 33.2°F0.7°C 76% 9.8 mph E15.8 kmh E 11.4 mph18.3 kmh 29.59 in1002.0 mb 0.00 in0.0 mm 0.00 in0.0 mm 0.00 in0.0 mm
01:44 PM 40.1°F4.5°C 33.2°F0.7°C 76% 10.7 mph E17.2 kmh E 13.0 mph20.9 kmh 29.59 in1002.0 mb 0.00 in0.0 mm 0.00 in0.0 mm 0.00 in0.0 mm
01:46 PM 40.1°F4.5°C 33.2°F0.7°C 76% 10.7 mph E17.2 kmh E 12.1 mph19.5 kmh 29.59 in1002.0 mb 0.00 in0.0 mm 0.00 in0.0 mm 0.00 in0.0 mm
01:48 PM 40.1°F4.5°C 33.5°F0.8°C 77% 12.1 mph E19.5 kmh E 13.7 mph22.0 kmh 29.59 in1002.0 mb 0.00 in0.0 mm 0.00 in0.0 mm 0.00 in0.0 mm
01:50 PM 40.1°F4.5°C 33.5°F0.8°C 77% 9.8 mph E15.8 kmh E 10.7 mph17.2 kmh 29.58 in1001.7 mb 0.00 in0.0 mm 0.00 in0.0 mm 0.00 in0.0 mm
01:52 PM 40.3°F4.6°C 33.7°F0.9°C 77% 9.8 mph E15.8 kmh E 11.4 mph18.3 kmh 29.58 in1001.7 mb 0.00 in0.0 mm 0.00 in0.0 mm 0.00 in0.0 mm
01:54 PM 40.5°F4.7°C 34.2°F1.2°C 78% 12.1 mph E19.5 kmh E 13.7 mph22.0 kmh 29.59 in1002.0 mb 0.00 in0.0 mm 0.00 in0.0 mm 0.00 in0.0 mm
01:56 PM 40.5°F4.7°C 34.2°F1.2°C 78% 13.0 mph E20.9 kmh E 14.5 mph23.3 kmh 29.58 in1001.7 mb 0.00 in0.0 mm 0.00 in0.0 mm 0.00 in0.0 mm
01:58 PM 40.5°F4.7°C 33.8°F1.0°C 77% 12.1 mph E19.5 kmh E 14.5 mph23.3 kmh 29.58 in1001.7 mb 0.00 in0.0 mm 0.00 in0.0 mm 0.00 in0.0 mm
02:00 PM 40.6°F4.8°C 34.0°F1.1°C 77% 12.1 mph E19.5 kmh E 13.7 mph22.0 kmh 29.58 in1001.7 mb 0.00 in0.0 mm 0.00 in0.0 mm 0.00 in0.0 mm
02:02 PM 40.6°F4.8°C 34.0°F1.1°C 77% 12.1 mph E19.5 kmh E 13.7 mph22.0 kmh 29.57 in1001.4 mb 0.00 in0.0 mm 0.00 in0.0 mm 0.00 in0.0 mm
02:04 PM 40.6°F4.8°C 34.0°F1.1°C 77% 12.1 mph E19.5 kmh E 13.7 mph22.0 kmh 29.58 in1001.7 mb 0.00 in0.0 mm 0.00 in0.0 mm 0.00 in0.0 mm
02:06 PM 40.5°F4.7°C 33.8°F1.0°C 77% 14.5 mph E23.3 kmh E 15.9 mph25.6 kmh 29.57 in1001.4 mb 0.00 in0.0 mm 0.00 in0.0 mm 0.00 in0.0 mm
02:08 PM 40.5°F4.7°C 33.8°F1.0°C 77% 13.0 mph E20.9 kmh E 14.5 mph23.3 kmh 29.57 in1001.4 mb 0.00 in0.0 mm 0.00 in0.0 mm 0.00 in0.0 mm
02:10 PM 40.5°F4.7°C 33.8°F1.0°C 77% 13.7 mph E22.0 kmh E 14.5 mph23.3 kmh 29.58 in1001.7 mb 0.00 in0.0 mm 0.00 in0.0 mm 0.00 in0.0 mm
02:12 PM 40.5°F4.7°C 33.8°F1.0°C 77% 15.2 mph ENE24.5 kmh ENE 16.8 mph27.0 kmh 29.57 in1001.4 mb 0.00 in0.0 mm 0.00 in0.0 mm 0.00 in0.0 mm
02:14 PM 40.5°F4.7°C 33.8°F1.0°C 77% 15.2 mph SE24.5 kmh SE 16.8 mph27.0 kmh 29.57 in1001.4 mb 0.00 in0.0 mm 0.00 in0.0 mm 0.00 in0.0 mm
02:16 PM 40.5°F4.7°C 33.8°F1.0°C 77% 14.5 mph SE23.3 kmh SE 16.8 mph27.0 kmh 29.57 in1001.4 mb 0.00 in0.0 mm 0.00 in0.0 mm 0.00 in0.0 mm
02:18 PM 40.5°F4.7°C 33.8°F1.0°C 77% 15.9 mph E25.6 kmh E 18.3 mph29.5 kmh 29.57 in1001.4 mb 0.00 in0.0 mm 0.00 in0.0 mm 0.00 in0.0 mm
02:20 PM 40.5°F4.7°C 33.5°F0.8°C 76% 14.5 mph E23.3 kmh E 16.8 mph27.0 kmh 29.57 in1001.4 mb 0.00 in0.0 mm 0.00 in0.0 mm 0.00 in0.0 mm
02:22 PM 40.5°F4.7°C 33.5°F0.8°C 76% 15.9 mph E25.6 kmh E 18.3 mph29.5 kmh 29.57 in1001.4 mb 0.00 in0.0 mm 0.00 in0.0 mm 0.00 in0.0 mm
02:24 PM 40.5°F4.7°C 33.8°F1.0°C 77% 16.8 mph ENE27.0 kmh ENE 18.3 mph29.5 kmh 29.56 in1001.0 mb 0.00 in0.0 mm 0.00 in0.0 mm 0.00 in0.0 mm
02:26 PM 40.3°F4.6°C 34.0°F1.1°C 78% 16.8 mph ENE27.0 kmh ENE 19.0 mph30.6 kmh 29.57 in1001.4 mb 0.00 in0.0 mm 0.00 in0.0 mm 0.00 in0.0 mm
02:28 PM 40.3°F4.6°C 34.3°F1.3°C 79% 15.9 mph ENE25.6 kmh ENE 17.5 mph28.2 kmh 29.56 in1001.0 mb 0.00 in0.0 mm 0.00 in0.0 mm 0.00 in0.0 mm
02:30 PM 39.9°F4.4°C 34.3°F1.3°C 80% 18.3 mph ENE29.5 kmh ENE 19.7 mph31.7 kmh 29.57 in1001.4 mb 0.00 in0.0 mm 0.00 in0.0 mm 0.00 in0.0 mm
02:32 PM 39.9°F4.4°C 34.3°F1.3°C 80% 15.2 mph SE24.5 kmh SE 17.5 mph28.2 kmh 29.57 in1001.4 mb 0.00 in0.0 mm 0.00 in0.0 mm 0.00 in0.0 mm
02:34 PM 39.7°F4.3°C 34.1°F1.2°C 80% 14.5 mph SE23.3 kmh SE 15.9 mph25.6 kmh 29.57 in1001.4 mb 0.00 in0.0 mm 0.00 in0.0 mm 0.00 in0.0 mm
02:36 PM 39.7°F4.3°C 34.1°F1.2°C 80% 13.7 mph SE22.0 kmh SE 16.8 mph27.0 kmh 29.56 in1001.0 mb 0.00 in0.0 mm 0.00 in0.0 mm 0.00 in0.0 mm
02:38 PM 39.7°F4.3°C 34.4°F1.3°C 81% 15.9 mph ENE25.6 kmh ENE 17.5 mph28.2 kmh 29.56 in1001.0 mb 0.00 in0.0 mm 0.00 in0.0 mm 0.00 in0.0 mm
02:40 PM 39.7°F4.3°C 34.4°F1.3°C 81% 18.3 mph SE29.5 kmh SE 19.7 mph31.7 kmh 29.56 in1001.0 mb 0.00 in0.0 mm 0.00 in0.0 mm 0.00 in0.0 mm
02:42 PM 39.6°F4.2°C 34.2°F1.2°C 81% 18.3 mph ENE29.5 kmh ENE 19.7 mph31.7 kmh 29.56 in1001.0 mb 0.00 in0.0 mm 0.00 in0.0 mm 0.00 in0.0 mm
02:44 PM 39.6°F4.2°C 34.5°F1.4°C 82% 20.6 mph SE33.2 kmh SE 22.2 mph35.7 kmh 29.56 in1001.0 mb 0.00 in0.0 mm 0.00 in0.0 mm 0.00 in0.0 mm
02:47 PM 39.6°F4.2°C 34.5°F1.4°C 82% 18.3 mph SE29.5 kmh SE 21.3 mph34.3 kmh 29.56 in1001.0 mb 0.00 in0.0 mm 0.00 in0.0 mm 0.00 in0.0 mm
02:48 PM 39.6°F4.2°C 34.5°F1.4°C 82% 19.0 mph SE30.6 kmh SE 22.2 mph35.7 kmh 29.56 in1001.0 mb 0.00 in0.0 mm 0.00 in0.0 mm 0.00 in0.0 mm
02:50 PM 39.4°F4.1°C 34.4°F1.3°C 82% 19.0 mph E30.6 kmh E 24.4 mph39.3 kmh 29.56 in1001.0 mb 0.00 in0.0 mm 0.00 in0.0 mm 0.00 in0.0 mm
02:52 PM 39.2°F4.0°C 34.2°F1.2°C 82% 16.8 mph SE27.0 kmh SE 19.7 mph31.7 kmh 29.57 in1001.4 mb 0.00 in0.0 mm 0.00 in0.0 mm 0.00 in0.0 mm
02:54 PM 38.8°F3.8°C 33.8°F1.0°C 82% 16.8 mph SE27.0 kmh SE 17.5 mph28.2 kmh 29.56 in1001.0 mb 0.01 in0.3 mm 0.35 in8.9 mm 0.01 in0.3 mm
02:58 PM 38.3°F3.5°C 33.3°F0.7°C 82% 17.5 mph SE28.2 kmh SE 20.6 mph33.2 kmh 29.56 in1001.0 mb 0.01 in0.3 mm 0.00 in0.0 mm 0.01 in0.3 mm
03:00 PM 38.1°F3.4°C 33.1°F0.6°C 82% 13.0 mph SE20.9 kmh SE 15.2 mph24.5 kmh 29.56 in1001.0 mb 0.02 in0.5 mm 0.01 in0.3 mm 0.02 in0.5 mm
03:02 PM 37.9°F3.3°C 32.9°F0.5°C 82% 9.2 mph ENE14.8 kmh ENE 9.8 mph15.8 kmh 29.56 in1001.0 mb 0.02 in0.5 mm 0.00 in0.0 mm 0.02 in0.5 mm
03:04 PM 37.9°F3.3°C 32.9°F0.5°C 82% 7.6 mph SE12.2 kmh SE 9.2 mph14.8 kmh 29.56 in1001.0 mb 0.02 in0.5 mm 0.00 in0.0 mm 0.02 in0.5 mm
03:06 PM 37.8°F3.2°C 33.1°F0.6°C 83% 5.4 mph S8.7 kmh S 6.9 mph11.1 kmh 29.56 in1001.0 mb 0.02 in0.5 mm 0.00 in0.0 mm 0.02 in0.5 mm
03:08 PM 37.8°F3.2°C 33.1°F0.6°C 83% 4.5 mph S7.2 kmh S 6.0 mph9.7 kmh 29.56 in1001.0 mb 0.02 in0.5 mm 0.00 in0.0 mm 0.02 in0.5 mm
03:10 PM 37.8°F3.2°C 33.1°F0.6°C 83% 4.5 mph S7.2 kmh S 5.4 mph8.7 kmh 29.56 in1001.0 mb 0.02 in0.5 mm 0.00 in0.0 mm 0.02 in0.5 mm
03:12 PM 37.8°F3.2°C 33.1°F0.6°C 83% 3.1 mph ENE5.0 kmh ENE 3.8 mph6.1 kmh 29.56 in1001.0 mb 0.02 in0.5 mm 0.00 in0.0 mm 0.02 in0.5 mm
03:14 PM 37.8°F3.2°C 33.4°F0.8°C 84% 1.6 mph SE2.6 kmh SE 2.2 mph3.5 kmh 29.57 in1001.4 mb 0.02 in0.5 mm 0.00 in0.0 mm 0.02 in0.5 mm
03:16 PM 37.8°F3.2°C 33.4°F0.8°C 84% 2.2 mph SSW3.5 kmh SSW 3.1 mph5.0 kmh 29.57 in1001.4 mb 0.02 in0.5 mm 0.00 in0.0 mm 0.02 in0.5 mm
03:18 PM 37.9°F3.3°C 33.5°F0.8°C 84% 3.1 mph SW5.0 kmh SW 3.8 mph6.1 kmh 29.57 in1001.4 mb 0.02 in0.5 mm 0.00 in0.0 mm 0.02 in0.5 mm
03:20 PM 37.8°F3.2°C 33.4°F0.8°C 84% 3.1 mph W5.0 kmh W 3.8 mph6.1 kmh 29.57 in1001.4 mb 0.02 in0.5 mm 0.00 in0.0 mm 0.02 in0.5 mm
03:22 PM 37.6°F3.1°C 33.2°F0.7°C 84% 3.1 mph SW5.0 kmh SW 3.8 mph6.1 kmh 29.58 in1001.7 mb 0.02 in0.5 mm 0.00 in0.0 mm 0.02 in0.5 mm
03:24 PM 37.4°F3.0°C 33.0°F0.6°C 84% 3.8 mph W6.1 kmh W 5.4 mph8.7 kmh 29.58 in1001.7 mb 0.02 in0.5 mm 0.00 in0.0 mm 0.02 in0.5 mm
03:26 PM 37.2°F2.9°C 32.8°F0.4°C 84% 3.1 mph W5.0 kmh W 4.5 mph7.2 kmh 29.58 in1001.7 mb 0.02 in0.5 mm 0.00 in0.0 mm 0.02 in0.5 mm
03:28 PM 36.9°F2.7°C 32.5°F0.3°C 84% 2.2 mph W3.5 kmh W 3.8 mph6.1 kmh 29.58 in1001.7 mb 0.04 in1.0 mm 0.35 in8.9 mm 0.04 in1.0 mm
03:30 PM 36.5°F2.5°C 32.1°F0.1°C 84% 3.8 mph W6.1 kmh W 4.5 mph7.2 kmh 29.58 in1001.7 mb 0.05 in1.3 mm 0.35 in8.9 mm 0.05 in1.3 mm
03:32 PM 36.3°F2.4°C 32.0°F0.0°C 84% 1.6 mph W2.6 kmh W 3.1 mph5.0 kmh 29.57 in1001.4 mb 0.05 in1.3 mm 0.00 in0.0 mm 0.05 in1.3 mm
03:34 PM 36.0°F2.2°C 31.3°F-0.4°C 83% 2.2 mph W3.5 kmh W 3.1 mph5.0 kmh 29.58 in1001.7 mb 0.05 in1.3 mm 0.00 in0.0 mm 0.05 in1.3 mm
03:36 PM 35.8°F2.1°C 31.1°F-0.5°C 83% 2.2 mph W3.5 kmh W 3.1 mph5.0 kmh 29.57 in1001.4 mb 0.05 in1.3 mm 0.00 in0.0 mm 0.05 in1.3 mm
03:38 PM 35.6°F2.0°C 31.0°F-0.6°C 83% 3.1 mph W5.0 kmh W 3.8 mph6.1 kmh 29.58 in1001.7 mb 0.05 in1.3 mm 0.00 in0.0 mm 0.05 in1.3 mm
03:40 PM 35.6°F2.0°C 31.0°F-0.6°C 83% 1.6 mph W2.6 kmh W 2.2 mph3.5 kmh 29.58 in1001.7 mb 0.05 in1.3 mm 0.00 in0.0 mm 0.05 in1.3 mm
03:42 PM 35.6°F2.0°C 31.0°F-0.6°C 83% 0.7 mph W1.1 kmh W 1.6 mph2.6 kmh 29.57 in1001.4 mb 0.05 in1.3 mm 0.00 in0.0 mm 0.05 in1.3 mm
03:45 PM 35.6°F2.0°C 31.0°F-0.6°C 83% 1.6 mph SW2.6 kmh SW 1.6 mph2.6 kmh 29.57 in1001.4 mb 0.05 in1.3 mm 0.00 in0.0 mm 0.05 in1.3 mm
03:47 PM 35.4°F1.9°C 31.1°F-0.5°C 84% 1.6 mph W2.6 kmh W 2.2 mph3.5 kmh 29.57 in1001.4 mb 0.06 in1.5 mm 0.36 in9.1 mm 0.06 in1.5 mm
03:48 PM 35.4°F1.9°C 31.1°F-0.5°C 84% 2.2 mph W3.5 kmh W 3.1 mph5.0 kmh 29.57 in1001.4 mb 0.07 in1.8 mm 0.71 in18.0 mm 0.07 in1.8 mm
03:51 PM 35.2°F1.8°C 30.9°F-0.6°C 84% 2.2 mph WSW3.5 kmh WSW 3.1 mph5.0 kmh 29.57 in1001.4 mb 0.07 in1.8 mm 0.00 in0.0 mm 0.07 in1.8 mm
03:53 PM 35.1°F1.7°C 30.7°F-0.7°C 84% 1.6 mph SW2.6 kmh SW 3.1 mph5.0 kmh 29.58 in1001.7 mb 0.07 in1.8 mm 0.00 in0.0 mm 0.07 in1.8 mm
03:55 PM 35.1°F1.7°C 30.7°F-0.7°C 84% 0.7 mph W1.1 kmh W 1.6 mph2.6 kmh 29.57 in1001.4 mb 0.07 in1.8 mm 0.00 in0.0 mm 0.08 in2.0 mm
03:57 PM 34.9°F1.6°C 30.6°F-0.8°C 84% 0.7 mph W1.1 kmh W 1.6 mph2.6 kmh 29.57 in1001.4 mb 0.07 in1.8 mm 0.00 in0.0 mm 0.08 in2.0 mm
03:59 PM 34.9°F1.6°C 30.6°F-0.8°C 84% Calm Calm -- 29.57 in1001.4 mb 0.07 in1.8 mm 0.00 in0.0 mm 0.09 in2.3 mm
04:01 PM 34.7°F1.5°C 30.4°F-0.9°C 84% Calm Calm -- 29.57 in1001.4 mb 0.07 in1.8 mm 0.00 in0.0 mm 0.09 in2.3 mm
04:03 PM 34.7°F1.5°C 30.4°F-0.9°C 84% Calm Calm -- 29.57 in1001.4 mb 0.08 in2.0 mm 0.35 in8.9 mm 0.11 in2.8 mm
04:05 PM 34.7°F1.5°C 30.4°F-0.9°C 84% Calm Calm -- 29.57 in1001.4 mb 0.08 in2.0 mm 0.00 in0.0 mm 0.11 in2.8 mm
04:07 PM 34.7°F1.5°C 30.4°F-0.9°C 84% Calm Calm -- 29.57 in1001.4 mb 0.08 in2.0 mm 0.00 in0.0 mm 0.11 in2.8 mm
04:08 PM 34.9°F1.6°C 30.6°F-0.8°C 84% Calm Calm -- 29.57 in1001.4 mb 0.08 in2.0 mm 0.00 in0.0 mm 0.11 in2.8 mm
04:11 PM 35.1°F1.7°C 30.7°F-0.7°C 84% Calm Calm -- 29.57 in1001.4 mb 0.08 in2.0 mm 0.00 in0.0 mm 0.11 in2.8 mm
04:13 PM 35.1°F1.7°C 31.0°F-0.6°C 85% Calm Calm -- 29.57 in1001.4 mb 0.09 in2.3 mm 0.35 in8.9 mm 0.12 in3.0 mm
04:15 PM 35.1°F1.7°C 31.0°F-0.6°C 85% Calm Calm -- 29.56 in1001.0 mb 0.09 in2.3 mm 0.00 in0.0 mm 0.12 in3.0 mm
04:17 PM 35.2°F1.8°C 31.2°F-0.4°C 85% Calm Calm 0.7 mph1.1 kmh 29.57 in1001.4 mb 0.09 in2.3 mm 0.00 in0.0 mm 0.12 in3.0 mm
04:19 PM 35.2°F1.8°C 31.2°F-0.4°C 85% 1.6 mph ENE2.6 kmh ENE 2.2 mph3.5 kmh 29.56 in1001.0 mb 0.09 in2.3 mm 0.00 in0.0 mm 0.12 in3.0 mm
04:21 PM 35.4°F1.9°C 31.4°F-0.3°C 85% 3.1 mph E5.0 kmh E 3.8 mph6.1 kmh 29.57 in1001.4 mb 0.09 in2.3 mm 0.00 in0.0 mm 0.12 in3.0 mm
04:23 PM 35.6°F2.0°C 31.5°F-0.3°C 85% 2.2 mph E3.5 kmh E 3.1 mph5.0 kmh 29.57 in1001.4 mb 0.11 in2.8 mm 0.35 in8.9 mm 0.13 in3.3 mm
04:25 PM 35.6°F2.0°C 31.5°F-0.3°C 85% 2.2 mph E3.5 kmh E 3.1 mph5.0 kmh 29.56 in1001.0 mb 0.11 in2.8 mm 0.00 in0.0 mm 0.13 in3.3 mm
04:27 PM 35.6°F2.0°C 31.5°F-0.3°C 85% 1.6 mph E2.6 kmh E 2.2 mph3.5 kmh 29.56 in1001.0 mb 0.09 in2.3 mm 0.00 in0.0 mm 0.13 in3.3 mm
04:29 PM 35.6°F2.0°C 31.5°F-0.3°C 85% 0.7 mph E1.1 kmh E 1.6 mph2.6 kmh 29.56 in1001.0 mb 0.08 in2.0 mm 0.00 in0.0 mm 0.13 in3.3 mm
04:31 PM 35.8°F2.1°C 31.7°F-0.2°C 85% 0.7 mph E1.1 kmh E 1.6 mph2.6 kmh 29.56 in1001.0 mb 0.08 in2.0 mm 0.00 in0.0 mm 0.13 in3.3 mm
04:33 PM 35.8°F2.1°C 32.0°F0.0°C 86% 0.7 mph E1.1 kmh E 1.6 mph2.6 kmh 29.56 in1001.0 mb 0.08 in2.0 mm 0.00 in0.0 mm 0.13 in3.3 mm
04:35 PM 35.8°F2.1°C 32.0°F0.0°C 86% Calm Calm -- 29.56 in1001.0 mb 0.08 in2.0 mm 0.00 in0.0 mm 0.13 in3.3 mm
04:37 PM 35.8°F2.1°C 32.0°F0.0°C 86% Calm Calm -- 29.56 in1001.0 mb 0.08 in2.0 mm 0.00 in0.0 mm 0.13 in3.3 mm
04:39 PM 35.8°F2.1°C 32.0°F0.0°C 86% Calm Calm -- 29.56 in1001.0 mb 0.08 in2.0 mm 0.00 in0.0 mm 0.13 in3.3 mm
04:41 PM 35.8°F2.1°C 32.0°F0.0°C 86% Calm Calm 0.7 mph1.1 kmh 29.56 in1001.0 mb 0.08 in2.0 mm 0.00 in0.0 mm 0.13 in3.3 mm
04:43 PM 35.8°F2.1°C 32.0°F0.0°C 86% Calm Calm -- 29.56 in1001.0 mb 0.08 in2.0 mm 0.00 in0.0 mm 0.13 in3.3 mm
04:45 PM 35.8°F2.1°C 32.0°F0.0°C 86% Calm Calm -- 29.56 in1001.0 mb 0.07 in1.8 mm 0.00 in0.0 mm 0.13 in3.3 mm
04:47 PM 35.8°F2.1°C 32.0°F0.0°C 86% Calm Calm -- 29.56 in1001.0 mb 0.06 in1.5 mm 0.00 in0.0 mm 0.13 in3.3 mm
04:49 PM 35.8°F2.1°C 32.0°F0.0°C 86% Calm Calm -- 29.56 in1001.0 mb 0.06 in1.5 mm 0.00 in0.0 mm 0.13 in3.3 mm
04:51 PM 35.8°F2.1°C 32.0°F0.0°C 86% 0.7 mph E1.1 kmh E 1.6 mph2.6 kmh 29.56 in1001.0 mb 0.06 in1.5 mm 0.00 in0.0 mm 0.13 in3.3 mm
04:53 PM 35.8°F2.1°C 32.0°F0.0°C 86% 0.7 mph S1.1 kmh S 2.2 mph3.5 kmh 29.56 in1001.0 mb 0.05 in1.3 mm 0.00 in0.0 mm 0.13 in3.3 mm
04:55 PM 35.8°F2.1°C 32.0°F0.0°C 86% 1.6 mph S2.6 kmh S 2.2 mph3.5 kmh 29.56 in1001.0 mb 0.05 in1.3 mm 0.00 in0.0 mm 0.13 in3.3 mm
04:57 PM 35.8°F2.1°C 32.0°F0.0°C 86% 1.6 mph S2.6 kmh S 2.2 mph3.5 kmh 29.56 in1001.0 mb 0.04 in1.0 mm 0.00 in0.0 mm 0.13 in3.3 mm
04:59 PM 35.6°F2.0°C 31.8°F-0.1°C 86% 0.7 mph S1.1 kmh S 1.6 mph2.6 kmh 29.56 in1001.0 mb 0.04 in1.0 mm 0.00 in0.0 mm 0.13 in3.3 mm
05:01 PM 35.6°F2.0°C 31.8°F-0.1°C 86% 0.7 mph S1.1 kmh S 1.6 mph2.6 kmh 29.56 in1001.0 mb 0.02 in0.5 mm 0.00 in0.0 mm 0.13 in3.3 mm
05:03 PM 35.6°F2.0°C 31.8°F-0.1°C 86% 0.7 mph S1.1 kmh S 1.6 mph2.6 kmh 29.56 in1001.0 mb 0.02 in0.5 mm 0.00 in0.0 mm 0.13 in3.3 mm
05:05 PM 35.6°F2.0°C 31.8°F-0.1°C 86% Calm Calm 0.7 mph1.1 kmh 29.56 in1001.0 mb 0.02 in0.5 mm 0.00 in0.0 mm 0.13 in3.3 mm
05:07 PM 35.6°F2.0°C 31.8°F-0.1°C 86% Calm Calm -- 29.56 in1001.0 mb 0.02 in0.5 mm 0.00 in0.0 mm 0.13 in3.3 mm
05:09 PM 35.6°F2.0°C 31.8°F-0.1°C 86% Calm Calm -- 29.56 in1001.0 mb 0.02 in0.5 mm 0.00 in0.0 mm 0.13 in3.3 mm
05:11 PM 35.6°F2.0°C 31.8°F-0.1°C 86% 0.7 mph S1.1 kmh S 1.6 mph2.6 kmh 29.55 in1000.7 mb 0.01 in0.3 mm 0.00 in0.0 mm 0.13 in3.3 mm
05:13 PM 35.6°F2.0°C 31.8°F-0.1°C 86% 1.6 mph S2.6 kmh S 2.2 mph3.5 kmh 29.55 in1000.7 mb 0.01 in0.3 mm 0.00 in0.0 mm 0.13 in3.3 mm
05:15 PM 35.6°F2.0°C 31.8°F-0.1°C 86% 0.7 mph S1.1 kmh S 1.6 mph2.6 kmh 29.55 in1000.7 mb 0.01 in0.3 mm 0.00 in0.0 mm 0.13 in3.3 mm
05:17 PM 35.6°F2.0°C 31.8°F-0.1°C 86% Calm Calm 0.7 mph1.1 kmh 29.55 in1000.7 mb 0.01 in0.3 mm 0.00 in0.0 mm 0.13 in3.3 mm
05:19 PM 35.8°F2.1°C 32.0°F0.0°C 86% Calm Calm 0.7 mph1.1 kmh 29.56 in1001.0 mb 0.01 in0.3 mm 0.00 in0.0 mm 0.13 in3.3 mm
05:21 PM 35.8°F2.1°C 32.3°F0.2°C 87% 0.7 mph S1.1 kmh S 1.6 mph2.6 kmh 29.55 in1000.7 mb 0.00 in0.0 mm 0.00 in0.0 mm 0.13 in3.3 mm
05:23 PM 35.8°F2.1°C 32.3°F0.2°C 87% 3.1 mph NE5.0 kmh NE 3.8 mph6.1 kmh 29.55 in1000.7 mb 0.00 in0.0 mm 0.00 in0.0 mm 0.13 in3.3 mm
05:25 PM 35.8°F2.1°C 32.3°F0.2°C 87% 0.7 mph E1.1 kmh E 1.6 mph2.6 kmh 29.56 in1001.0 mb 0.00 in0.0 mm 0.00 in0.0 mm 0.13 in3.3 mm
05:27 PM 36.0°F2.2°C 32.5°F0.3°C 87% 1.6 mph NE2.6 kmh NE 3.1 mph5.0 kmh 29.56 in1001.0 mb 0.00 in0.0 mm 0.00 in0.0 mm 0.13 in3.3 mm
05:29 PM 36.0°F2.2°C 32.5°F0.3°C 87% 3.8 mph NE6.1 kmh NE 4.5 mph7.2 kmh 29.56 in1001.0 mb 0.00 in0.0 mm 0.00 in0.0 mm 0.13 in3.3 mm
05:31 PM 36.1°F2.3°C 32.7°F0.4°C 87% 3.8 mph NE6.1 kmh NE 4.5 mph7.2 kmh 29.56 in1001.0 mb 0.00 in0.0 mm 0.00 in0.0 mm 0.13 in3.3 mm
05:33 PM 36.1°F2.3°C 32.7°F0.4°C 87% 3.1 mph NE5.0 kmh NE 3.8 mph6.1 kmh 29.56 in1001.0 mb 0.00 in0.0 mm 0.00 in0.0 mm 0.13 in3.3 mm
05:35 PM 36.3°F2.4°C 32.8°F0.4°C 87% 3.1 mph NE5.0 kmh NE 3.8 mph6.1 kmh 29.56 in1001.0 mb 0.00 in0.0 mm 0.00 in0.0 mm 0.13 in3.3 mm
05:37 PM 36.3°F2.4°C 32.8°F0.4°C 87% 2.2 mph NE3.5 kmh NE 3.1 mph5.0 kmh 29.56 in1001.0 mb 0.00 in0.0 mm 0.00 in0.0 mm 0.13 in3.3 mm
05:39 PM 36.5°F2.5°C 33.0°F0.6°C 87% 2.2 mph NNE3.5 kmh NNE 3.1 mph5.0 kmh 29.56 in1001.0 mb 0.00 in0.0 mm 0.00 in0.0 mm 0.13 in3.3 mm
05:41 PM 36.5°F2.5°C 33.3°F0.7°C 88% 2.2 mph NE3.5 kmh NE 3.1 mph5.0 kmh 29.56 in1001.0 mb 0.00 in0.0 mm 0.00 in0.0 mm 0.13 in3.3 mm
05:43 PM 36.7°F2.6°C 33.5°F0.8°C 88% 0.7 mph 1.1 kmh 1.6 mph2.6 kmh 29.56 in1001.0 mb 0.00 in0.0 mm 0.00 in0.0 mm 0.13 in3.3 mm
05:45 PM 36.5°F2.5°C 33.3°F0.7°C 88% 0.7 mph 1.1 kmh 2.2 mph3.5 kmh 29.56 in1001.0 mb 0.00 in0.0 mm 0.00 in0.0 mm 0.13 in3.3 mm
05:47 PM 36.5°F2.5°C 33.3°F0.7°C 88% Calm Calm -- 29.56 in1001.0 mb 0.00 in0.0 mm 0.00 in0.0 mm 0.13 in3.3 mm
05:49 PM 36.5°F2.5°C 33.3°F0.7°C 88% Calm Calm -- 29.56 in1001.0 mb 0.00 in0.0 mm 0.00 in0.0 mm 0.13 in3.3 mm
05:51 PM 36.3°F2.4°C 33.1°F0.6°C 88% Calm Calm -- 29.56 in1001.0 mb 0.00 in0.0 mm 0.00 in0.0 mm 0.13 in3.3 mm
05:53 PM 36.3°F2.4°C 33.1°F0.6°C 88% 0.7 mph 1.1 kmh 1.6 mph2.6 kmh 29.56 in1001.0 mb 0.00 in0.0 mm 0.00 in0.0 mm 0.13 in3.3 mm
05:55 PM 36.3°F2.4°C 33.1°F0.6°C 88% Calm Calm 0.7 mph1.1 kmh 29.57 in1001.4 mb 0.00 in0.0 mm 0.00 in0.0 mm 0.13 in3.3 mm
05:57 PM 36.3°F2.4°C 33.1°F0.6°C 88% Calm Calm -- 29.57 in1001.4 mb 0.00 in0.0 mm 0.00 in0.0 mm 0.13 in3.3 mm
05:59 PM 36.3°F2.4°C 33.1°F0.6°C 88% 0.7 mph 1.1 kmh 1.6 mph2.6 kmh 29.56 in1001.0 mb 0.00 in0.0 mm 0.00 in0.0 mm 0.13 in3.3 mm
06:01 PM 36.3°F2.4°C 33.1°F0.6°C 88% 0.7 mph 1.1 kmh 1.6 mph2.6 kmh 29.56 in1001.0 mb 0.00 in0.0 mm 0.00 in0.0 mm 0.13 in3.3 mm
06:03 PM 36.3°F2.4°C 33.1°F0.6°C 88% 0.7 mph 1.1 kmh 1.6 mph2.6 kmh 29.57 in1001.4 mb 0.00 in0.0 mm 0.00 in0.0 mm 0.13 in3.3 mm
06:05 PM 36.5°F2.5°C 33.3°F0.7°C 88% 0.7 mph 1.1 kmh 1.6 mph2.6 kmh 29.56 in1001.0 mb 0.00 in0.0 mm 0.00 in0.0 mm 0.13 in3.3 mm
06:07 PM 36.5°F2.5°C 33.3°F0.7°C 88% 0.7 mph NW1.1 kmh NW 1.6 mph2.6 kmh 29.56 in1001.0 mb 0.00 in0.0 mm 0.00 in0.0 mm 0.13 in3.3 mm
06:09 PM 36.5°F2.5°C 33.3°F0.7°C 88% 0.7 mph NW1.1 kmh NW 1.6 mph2.6 kmh 29.56 in1001.0 mb 0.00 in0.0 mm 0.00 in0.0 mm 0.13 in3.3 mm
06:11 PM 36.5°F2.5°C 33.3°F0.7°C 88% 1.6 mph W2.6 kmh W 2.2 mph3.5 kmh 29.56 in1001.0 mb 0.00 in0.0 mm 0.00 in0.0 mm 0.13 in3.3 mm
06:13 PM 36.5°F2.5°C 33.3°F0.7°C 88% Calm Calm 0.7 mph1.1 kmh 29.57 in1001.4 mb 0.00 in0.0 mm 0.00 in0.0 mm 0.13 in3.3 mm
06:15 PM 36.3°F2.4°C 33.1°F0.6°C 88% Calm Calm -- 29.57 in1001.4 mb 0.00 in0.0 mm 0.00 in0.0 mm 0.13 in3.3 mm
06:17 PM 36.3°F2.4°C 33.1°F0.6°C 88% Calm Calm -- 29.56 in1001.0 mb 0.00 in0.0 mm 0.00 in0.0 mm 0.13 in3.3 mm
06:19 PM 36.3°F2.4°C 33.1°F0.6°C 88% 0.7 mph W1.1 kmh W 1.6 mph2.6 kmh 29.57 in1001.4 mb 0.00 in0.0 mm 0.00 in0.0 mm 0.13 in3.3 mm
06:21 PM 36.3°F2.4°C 33.1°F0.6°C 88% 0.7 mph W1.1 kmh W 1.6 mph2.6 kmh 29.57 in1001.4 mb 0.00 in0.0 mm 0.00 in0.0 mm 0.13 in3.3 mm
06:23 PM 36.3°F2.4°C 33.1°F0.6°C 88% Calm Calm 0.7 mph1.1 kmh 29.58 in1001.7 mb 0.00 in0.0 mm 0.00 in0.0 mm 0.13 in3.3 mm
06:25 PM 36.3°F2.4°C 33.1°F0.6°C 88% Calm Calm -- 29.57 in1001.4 mb 0.00 in0.0 mm 0.00 in0.0 mm 0.13 in3.3 mm
06:27 PM 36.1°F2.3°C 32.9°F0.5°C 88% Calm Calm -- 29.57 in1001.4 mb 0.00 in0.0 mm 0.00 in0.0 mm 0.13 in3.3 mm
06:29 PM 36.1°F2.3°C 32.9°F0.5°C 88% Calm Calm -- 29.57 in1001.4 mb 0.00 in0.0 mm 0.00 in0.0 mm 0.13 in3.3 mm
06:31 PM 36.1°F2.3°C 32.9°F0.5°C 88% Calm Calm -- 29.57 in1001.4 mb 0.00 in0.0 mm 0.00 in0.0 mm 0.13 in3.3 mm
06:33 PM 36.1°F2.3°C 32.9°F0.5°C 88% Calm Calm -- 29.58 in1001.7 mb 0.00 in0.0 mm 0.00 in0.0 mm 0.13 in3.3 mm
06:35 PM 36.1°F2.3°C 32.9°F0.5°C 88% Calm Calm -- 29.57 in1001.4 mb 0.00 in0.0 mm 0.00 in0.0 mm 0.13 in3.3 mm
06:37 PM 36.0°F2.2°C 32.8°F0.4°C 88% Calm Calm -- 29.56 in1001.0 mb 0.00 in0.0 mm 0.00 in0.0 mm 0.13 in3.3 mm
06:39 PM 36.0°F2.2°C 32.8°F0.4°C 88% Calm Calm -- 29.57 in1001.4 mb 0.00 in0.0 mm 0.00 in0.0 mm 0.13 in3.3 mm
06:41 PM 36.0°F2.2°C 32.8°F0.4°C 88% Calm Calm -- 29.57 in1001.4 mb 0.00 in0.0 mm 0.00 in0.0 mm 0.13 in3.3 mm
06:43 PM 36.0°F2.2°C 32.8°F0.4°C 88% Calm Calm -- 29.57 in1001.4 mb 0.00 in0.0 mm 0.00 in0.0 mm 0.13 in3.3 mm
06:45 PM 36.0°F2.2°C 32.8°F0.4°C 88% Calm Calm -- 29.57 in1001.4 mb 0.00 in0.0 mm 0.00 in0.0 mm 0.13 in3.3 mm
06:47 PM 36.0°F2.2°C 32.8°F0.4°C 88% Calm Calm -- 29.57 in1001.4 mb 0.00 in0.0 mm 0.00 in0.0 mm 0.13 in3.3 mm
06:49 PM 36.0°F2.2°C 32.8°F0.4°C 88% Calm Calm -- 29.58 in1001.7 mb 0.00 in0.0 mm 0.00 in0.0 mm 0.13 in3.3 mm
06:51 PM 36.0°F2.2°C 32.8°F0.4°C 88% Calm Calm -- 29.57 in1001.4 mb 0.00 in0.0 mm 0.00 in0.0 mm 0.13 in3.3 mm
06:53 PM 36.0°F2.2°C 32.8°F0.4°C 88% Calm Calm -- 29.57 in1001.4 mb 0.00 in0.0 mm 0.00 in0.0 mm 0.13 in3.3 mm
06:55 PM 36.0°F2.2°C 32.8°F0.4°C 88% 0.7 mph W1.1 kmh W 0.7 mph1.1 kmh 29.57 in1001.4 mb 0.00 in0.0 mm 0.00 in0.0 mm 0.13 in3.3 mm
06:57 PM 36.0°F2.2°C 32.8°F0.4°C 88% 0.7 mph W1.1 kmh W 1.6 mph2.6 kmh 29.58 in1001.7 mb 0.00 in0.0 mm 0.00 in0.0 mm 0.13 in3.3 mm
06:59 PM 36.0°F2.2°C 32.8°F0.4°C 88% 0.7 mph W1.1 kmh W 1.6 mph2.6 kmh 29.58 in1001.7 mb 0.00 in0.0 mm 0.00 in0.0 mm 0.13 in3.3 mm
07:01 PM 36.0°F2.2°C 32.8°F0.4°C 88% Calm Calm 0.7 mph1.1 kmh 29.58 in1001.7 mb 0.00 in0.0 mm 0.00 in0.0 mm 0.13 in3.3 mm
07:03 PM 36.0°F2.2°C 32.8°F0.4°C 88% 0.7 mph W1.1 kmh W 1.6 mph2.6 kmh 29.58 in1001.7 mb 0.00 in0.0 mm 0.00 in0.0 mm 0.13 in3.3 mm
07:05 PM 36.0°F2.2°C 32.8°F0.4°C 88% 0.7 mph W1.1 kmh W 1.6 mph2.6 kmh 29.57 in1001.4 mb 0.00 in0.0 mm 0.00 in0.0 mm 0.13 in3.3 mm
07:07 PM 36.0°F2.2°C 32.8°F0.4°C 88% 0.7 mph W1.1 kmh W 1.6 mph2.6 kmh 29.57 in1001.4 mb 0.00 in0.0 mm 0.00 in0.0 mm 0.13 in3.3 mm
07:09 PM 36.0°F2.2°C 32.8°F0.4°C 88% 0.7 mph W1.1 kmh W 1.6 mph2.6 kmh 29.58 in1001.7 mb 0.00 in0.0 mm 0.00 in0.0 mm 0.13 in3.3 mm
07:11 PM 36.0°F2.2°C 32.8°F0.4°C 88% Calm Calm 0.7 mph1.1 kmh 29.58 in1001.7 mb 0.00 in0.0 mm 0.00 in0.0 mm 0.13 in3.3 mm
07:13 PM 36.0°F2.2°C 32.8°F0.4°C 88% Calm Calm 0.7 mph1.1 kmh 29.58 in1001.7 mb 0.00 in0.0 mm 0.00 in0.0 mm 0.13 in3.3 mm
07:15 PM 36.0°F2.2°C 32.8°F0.4°C 88% 0.7 mph W1.1 kmh W 1.6 mph2.6 kmh 29.58 in1001.7 mb 0.00 in0.0 mm 0.00 in0.0 mm 0.13 in3.3 mm
07:17 PM 36.0°F2.2°C 32.8°F0.4°C 88% 0.7 mph W1.1 kmh W 1.6 mph2.6 kmh 29.57 in1001.4 mb 0.00 in0.0 mm 0.00 in0.0 mm 0.13 in3.3 mm
07:19 PM 36.0°F2.2°C 32.8°F0.4°C 88% 1.6 mph W2.6 kmh W 2.2 mph3.5 kmh 29.58 in1001.7 mb 0.00 in0.0 mm 0.00 in0.0 mm 0.13 in3.3 mm
07:21 PM 36.0°F2.2°C 32.8°F0.4°C 88% 0.7 mph W1.1 kmh W 1.6 mph2.6 kmh 29.58 in1001.7 mb 0.00 in0.0 mm 0.00 in0.0 mm 0.13 in3.3 mm
07:23 PM 36.0°F2.2°C 32.8°F0.4°C 88% Calm Calm 0.7 mph1.1 kmh 29.58 in1001.7 mb 0.00 in0.0 mm 0.00 in0.0 mm 0.13 in3.3 mm
07:25 PM 36.0°F2.2°C 32.8°F0.4°C 88% Calm Calm -- 29.58 in1001.7 mb 0.00 in0.0 mm 0.00 in0.0 mm 0.13 in3.3 mm
07:27 PM 36.1°F2.3°C 33.2°F0.7°C 89% 0.7 mph W1.1 kmh W 1.6 mph2.6 kmh 29.59 in1002.0 mb 0.00 in0.0 mm 0.00 in0.0 mm 0.13 in3.3 mm
07:29 PM 36.1°F2.3°C 33.2°F0.7°C 89% 0.7 mph W1.1 kmh W 1.6 mph2.6 kmh 29.59 in1002.0 mb 0.00 in0.0 mm 0.00 in0.0 mm 0.13 in3.3 mm
07:31 PM 36.1°F2.3°C 33.2°F0.7°C 89% Calm Calm 0.7 mph1.1 kmh 29.59 in1002.0 mb 0.00 in0.0 mm 0.00 in0.0 mm 0.13 in3.3 mm
07:33 PM 36.1°F2.3°C 33.2°F0.7°C 89% Calm Calm 0.7 mph1.1 kmh 29.58 in1001.7 mb 0.00 in0.0 mm 0.00 in0.0 mm 0.13 in3.3 mm
07:35 PM 36.1°F2.3°C 33.2°F0.7°C 89% Calm Calm -- 29.59 in1002.0 mb 0.00 in0.0 mm 0.00 in0.0 mm 0.13 in3.3 mm
07:37 PM 36.1°F2.3°C 33.2°F0.7°C 89% Calm Calm -- 29.58 in1001.7 mb 0.00 in0.0 mm 0.00 in0.0 mm 0.13 in3.3 mm
07:40 PM 36.1°F2.3°C 33.2°F0.7°C 89% 0.7 mph W1.1 kmh W 1.6 mph2.6 kmh 29.58 in1001.7 mb 0.00 in0.0 mm 0.00 in0.0 mm 0.13 in3.3 mm
07:42 PM 36.1°F2.3°C 33.2°F0.7°C 89% Calm Calm -- 29.59 in1002.0 mb 0.00 in0.0 mm 0.00 in0.0 mm 0.13 in3.3 mm
07:44 PM 36.1°F2.3°C 33.2°F0.7°C 89% Calm Calm -- 29.59 in1002.0 mb 0.00 in0.0 mm 0.00 in0.0 mm 0.13 in3.3 mm
07:46 PM 36.1°F2.3°C 33.2°F0.7°C 89% Calm Calm -- 29.59 in1002.0 mb 0.00 in0.0 mm 0.00 in0.0 mm 0.13 in3.3 mm
07:48 PM 36.3°F2.4°C 33.4°F0.8°C 89% Calm Calm -- 29.59 in1002.0 mb 0.00 in0.0 mm 0.00 in0.0 mm 0.13 in3.3 mm
07:50 PM 36.3°F2.4°C 33.4°F0.8°C 89% 0.7 mph W1.1 kmh W 1.6 mph2.6 kmh 29.59 in1002.0 mb 0.00 in0.0 mm 0.00 in0.0 mm 0.13 in3.3 mm
07:52 PM 36.3°F2.4°C 33.4°F0.8°C 89% Calm Calm 0.7 mph1.1 kmh 29.59 in1002.0 mb 0.00 in0.0 mm 0.00 in0.0 mm 0.13 in3.3 mm
07:54 PM 36.3°F2.4°C 33.4°F0.8°C 89% Calm Calm -- 29.58 in1001.7 mb 0.00 in0.0 mm 0.00 in0.0 mm 0.13 in3.3 mm
07:56 PM 36.3°F2.4°C 33.4°F0.8°C 89% Calm Calm -- 29.59 in1002.0 mb 0.00 in0.0 mm 0.00 in0.0 mm 0.13 in3.3 mm
07:58 PM 36.3°F2.4°C 33.4°F0.8°C 89% Calm Calm -- 29.59 in1002.0 mb 0.00 in0.0 mm 0.00 in0.0 mm 0.13 in3.3 mm
08:00 PM 36.1°F2.3°C 33.2°F0.7°C 89% Calm Calm -- 29.59 in1002.0 mb 0.00 in0.0 mm 0.00 in0.0 mm 0.13 in3.3 mm
08:02 PM 36.1°F2.3°C 33.2°F0.7°C 89% Calm Calm -- 29.58 in1001.7 mb 0.00 in0.0 mm 0.00 in0.0 mm 0.13 in3.3 mm
08:04 PM 36.1°F2.3°C 33.2°F0.7°C 89% Calm Calm -- 29.59 in1002.0 mb 0.00 in0.0 mm 0.00 in0.0 mm 0.13 in3.3 mm
08:06 PM 36.1°F2.3°C 33.2°F0.7°C 89% Calm Calm -- 29.59 in1002.0 mb 0.00 in0.0 mm 0.00 in0.0 mm 0.13 in3.3 mm
08:08 PM 36.1°F2.3°C 33.2°F0.7°C 89% Calm Calm -- 29.59 in1002.0 mb 0.00 in0.0 mm 0.00 in0.0 mm 0.13 in3.3 mm
08:10 PM 36.1°F2.3°C 33.2°F0.7°C 89% Calm Calm 0.7 mph1.1 kmh 29.59 in1002.0 mb 0.00 in0.0 mm 0.00 in0.0 mm 0.13 in3.3 mm
08:12 PM 36.1°F2.3°C 33.2°F0.7°C 89% 0.7 mph W1.1 kmh W 0.7 mph1.1 kmh 29.59 in1002.0 mb 0.00 in0.0 mm 0.00 in0.0 mm 0.13 in3.3 mm
08:14 PM 36.1°F2.3°C 33.2°F0.7°C 89% Calm Calm -- 29.59 in1002.0 mb 0.00 in0.0 mm 0.00 in0.0 mm 0.13 in3.3 mm
08:16 PM 36.3°F2.4°C 33.4°F0.8°C 89% Calm Calm -- 29.59 in1002.0 mb 0.00 in0.0 mm 0.00 in0.0 mm 0.13 in3.3 mm
08:18 PM 36.3°F2.4°C 33.4°F0.8°C 89% Calm Calm -- 29.59 in1002.0 mb 0.00 in0.0 mm 0.00 in0.0 mm 0.13 in3.3 mm
08:20 PM 36.3°F2.4°C 33.4°F0.8°C 89% Calm Calm -- 29.59 in1002.0 mb 0.00 in0.0 mm 0.00 in0.0 mm 0.13 in3.3 mm
08:22 PM 36.3°F2.4°C 33.4°F0.8°C 89% Calm Calm -- 29.59 in1002.0 mb 0.00 in0.0 mm 0.00 in0.0 mm 0.13 in3.3 mm
08:24 PM 36.3°F2.4°C 33.4°F0.8°C 89% Calm Calm -- 29.59 in1002.0 mb 0.00 in0.0 mm 0.00 in0.0 mm 0.13 in3.3 mm
08:26 PM 36.3°F2.4°C 33.4°F0.8°C 89% 0.7 mph W1.1 kmh W 0.7 mph1.1 kmh 29.59 in1002.0 mb 0.00 in0.0 mm 0.00 in0.0 mm 0.13 in3.3 mm
08:28 PM 36.3°F2.4°C 33.4°F0.8°C 89% Calm Calm 0.7 mph1.1 kmh 29.59 in1002.0 mb 0.00 in0.0 mm 0.00 in0.0 mm 0.13 in3.3 mm
08:30 PM 36.3°F2.4°C 33.4°F0.8°C 89% Calm Calm -- 29.59 in1002.0 mb 0.00 in0.0 mm 0.00 in0.0 mm 0.13 in3.3 mm
08:32 PM 36.3°F2.4°C 33.4°F0.8°C 89% Calm Calm -- 29.59 in1002.0 mb 0.00 in0.0 mm 0.00 in0.0 mm 0.13 in3.3 mm
08:34 PM 36.3°F2.4°C 33.4°F0.8°C 89% Calm Calm -- 29.59 in1002.0 mb 0.00 in0.0 mm 0.00 in0.0 mm 0.13 in3.3 mm
08:36 PM 36.3°F2.4°C 33.4°F0.8°C 89% Calm Calm -- 29.59 in1002.0 mb 0.00 in0.0 mm 0.00 in0.0 mm 0.13 in3.3 mm
08:38 PM 36.3°F2.4°C 33.4°F0.8°C 89% Calm Calm -- 29.59 in1002.0 mb 0.00 in0.0 mm 0.00 in0.0 mm 0.13 in3.3 mm
08:40 PM 36.3°F2.4°C 33.4°F0.8°C 89% Calm Calm -- 29.59 in1002.0 mb 0.00 in0.0 mm 0.00 in0.0 mm 0.13 in3.3 mm
08:42 PM 36.3°F2.4°C 33.4°F0.8°C 89% Calm Calm -- 29.59 in1002.0 mb 0.00 in0.0 mm 0.00 in0.0 mm 0.13 in3.3 mm
08:44 PM 36.3°F2.4°C 33.4°F0.8°C 89% Calm Calm -- 29.59 in1002.0 mb 0.00 in0.0 mm 0.00 in0.0 mm 0.13 in3.3 mm
08:46 PM 36.3°F2.4°C 33.4°F0.8°C 89% Calm Calm -- 29.59 in1002.0 mb 0.00 in0.0 mm 0.00 in0.0 mm 0.13 in3.3 mm
08:48 PM 36.5°F2.5°C 33.6°F0.9°C 89% Calm Calm -- 29.60 in1002.4 mb 0.00 in0.0 mm 0.00 in0.0 mm 0.13 in3.3 mm
08:50 PM 36.5°F2.5°C 33.9°F1.1°C 90% Calm Calm -- 29.59 in1002.0 mb 0.00 in0.0 mm 0.00 in0.0 mm 0.13 in3.3 mm
08:52 PM 36.5°F2.5°C 33.9°F1.1°C 90% 0.7 mph W1.1 kmh W 1.6 mph2.6 kmh 29.59 in1002.0 mb 0.00 in0.0 mm 0.00 in0.0 mm 0.13 in3.3 mm
08:54 PM 36.5°F2.5°C 33.9°F1.1°C 90% Calm Calm -- 29.59 in1002.0 mb 0.00 in0.0 mm 0.00 in0.0 mm 0.13 in3.3 mm
08:56 PM 36.5°F2.5°C 33.9°F1.1°C 90% Calm Calm -- 29.60 in1002.4 mb 0.00 in0.0 mm 0.00 in0.0 mm 0.13 in3.3 mm
08:58 PM 36.5°F2.5°C 33.9°F1.1°C 90% Calm Calm -- 29.59 in1002.0 mb 0.00 in0.0 mm 0.00 in0.0 mm 0.13 in3.3 mm
09:00 PM 36.5°F2.5°C 33.9°F1.1°C 90% Calm Calm -- 29.59 in1002.0 mb 0.00 in0.0 mm 0.00 in0.0 mm 0.13 in3.3 mm
09:02 PM 36.5°F2.5°C 33.9°F1.1°C 90% Calm Calm -- 29.60 in1002.4 mb 0.00 in0.0 mm 0.00 in0.0 mm 0.13 in3.3 mm
09:04 PM 36.5°F2.5°C 33.9°F1.1°C 90% Calm Calm -- 29.59 in1002.0 mb 0.00 in0.0 mm 0.00 in0.0 mm 0.13 in3.3 mm
09:06 PM 36.5°F2.5°C 33.9°F1.1°C 90% Calm Calm -- 29.59 in1002.0 mb 0.00 in0.0 mm 0.00 in0.0 mm 0.13 in3.3 mm
09:08 PM 36.5°F2.5°C 33.9°F1.1°C 90% Calm Calm -- 29.59 in1002.0 mb 0.00 in0.0 mm 0.00 in0.0 mm 0.13 in3.3 mm
09:10 PM 36.5°F2.5°C 33.9°F1.1°C 90% Calm Calm -- 29.60 in1002.4 mb 0.00 in0.0 mm 0.00 in0.0 mm 0.13 in3.3 mm
09:12 PM 36.5°F2.5°C 33.9°F1.1°C 90% Calm Calm -- 29.59 in1002.0 mb 0.00 in0.0 mm 0.00 in0.0 mm 0.13 in3.3 mm
09:14 PM 36.5°F2.5°C 33.9°F1.1°C 90% Calm Calm -- 29.60 in1002.4 mb 0.00 in0.0 mm 0.00 in0.0 mm 0.13 in3.3 mm
09:16 PM 36.5°F2.5°C 33.9°F1.1°C 90% Calm Calm -- 29.60 in1002.4 mb 0.00 in0.0 mm 0.00 in0.0 mm 0.13 in3.3 mm
09:18 PM 36.5°F2.5°C 33.9°F1.1°C 90% Calm Calm -- 29.60 in1002.4 mb 0.00 in0.0 mm 0.00 in0.0 mm 0.13 in3.3 mm
09:20 PM 36.5°F2.5°C 33.9°F1.1°C 90% Calm Calm -- 29.60 in1002.4 mb 0.00 in0.0 mm 0.00 in0.0 mm 0.13 in3.3 mm
09:22 PM 36.5°F2.5°C 33.9°F1.1°C 90% Calm Calm -- 29.60 in1002.4 mb 0.00 in0.0 mm 0.00 in0.0 mm 0.13 in3.3 mm
09:24 PM 36.5°F2.5°C 33.9°F1.1°C 90% Calm Calm -- 29.60 in1002.4 mb 0.00 in0.0 mm 0.00 in0.0 mm 0.13 in3.3 mm
09:26 PM 36.5°F2.5°C 33.9°F1.1°C 90% Calm Calm -- 29.60 in1002.4 mb 0.00 in0.0 mm 0.00 in0.0 mm 0.13 in3.3 mm
09:28 PM 36.5°F2.5°C 33.9°F1.1°C 90% 0.7 mph W1.1 kmh W 1.6 mph2.6 kmh 29.61 in1002.7 mb 0.00 in0.0 mm 0.00 in0.0 mm 0.13 in3.3 mm
09:30 PM 36.5°F2.5°C 33.9°F1.1°C 90% 0.7 mph W1.1 kmh W 0.7 mph1.1 kmh 29.61 in1002.7 mb 0.00 in0.0 mm 0.00 in0.0 mm 0.13 in3.3 mm
09:32 PM 36.3°F2.4°C 33.7°F0.9°C 90% Calm Calm 0.7 mph1.1 kmh 29.60 in1002.4 mb 0.00 in0.0 mm 0.00 in0.0 mm 0.13 in3.3 mm
09:34 PM 36.5°F2.5°C 33.9°F1.1°C 90% 0.7 mph W1.1 kmh W 1.6 mph2.6 kmh 29.61 in1002.7 mb 0.00 in0.0 mm 0.00 in0.0 mm 0.13 in3.3 mm
09:36 PM 36.5°F2.5°C 33.9°F1.1°C 90% 0.7 mph W1.1 kmh W 0.7 mph1.1 kmh 29.61 in1002.7 mb 0.00 in0.0 mm 0.00 in0.0 mm 0.13 in3.3 mm
09:38 PM 36.3°F2.4°C 33.7°F0.9°C 90% 0.7 mph W1.1 kmh W 1.6 mph2.6 kmh 29.60 in1002.4 mb 0.00 in0.0 mm 0.00 in0.0 mm 0.13 in3.3 mm
09:40 PM 36.3°F2.4°C 33.7°F0.9°C 90% Calm Calm 0.7 mph1.1 kmh 29.61 in1002.7 mb 0.00 in0.0 mm 0.00 in0.0 mm 0.13 in3.3 mm
09:42 PM 36.3°F2.4°C 33.7°F0.9°C 90% 0.7 mph W1.1 kmh W 1.6 mph2.6 kmh 29.61 in1002.7 mb 0.00 in0.0 mm 0.00 in0.0 mm 0.13 in3.3 mm
09:44 PM 36.3°F2.4°C 33.7°F0.9°C 90% Calm Calm 0.7 mph1.1 kmh 29.61 in1002.7 mb 0.00 in0.0 mm 0.00 in0.0 mm 0.13 in3.3 mm
09:46 PM 36.5°F2.5°C 33.9°F1.1°C 90% 0.7 mph W1.1 kmh W 1.6 mph2.6 kmh 29.62 in1003.0 mb 0.00 in0.0 mm 0.00 in0.0 mm 0.13 in3.3 mm
09:48 PM 36.5°F2.5°C 33.9°F1.1°C 90% 0.7 mph W1.1 kmh W 1.6 mph2.6 kmh 29.62 in1003.0 mb 0.00 in0.0 mm 0.00 in0.0 mm 0.13 in3.3 mm
09:50 PM 36.5°F2.5°C 33.9°F1.1°C 90% 1.6 mph W2.6 kmh W 1.6 mph2.6 kmh 29.62 in1003.0 mb 0.00 in0.0 mm 0.00 in0.0 mm 0.13 in3.3 mm
09:52 PM 36.5°F2.5°C 33.9°F1.1°C 90% 0.7 mph W1.1 kmh W 1.6 mph2.6 kmh 29.62 in1003.0 mb 0.00 in0.0 mm 0.00 in0.0 mm 0.13 in3.3 mm
09:54 PM 36.5°F2.5°C 33.9°F1.1°C 90% 1.6 mph W2.6 kmh W 2.2 mph3.5 kmh 29.62 in1003.0 mb 0.00 in0.0 mm 0.00 in0.0 mm 0.13 in3.3 mm
09:56 PM 36.5°F2.5°C 33.9°F1.1°C 90% 1.6 mph W2.6 kmh W 2.2 mph3.5 kmh 29.62 in1003.0 mb 0.00 in0.0 mm 0.00 in0.0 mm 0.13 in3.3 mm
09:58 PM 36.5°F2.5°C 33.9°F1.1°C 90% 1.6 mph W2.6 kmh W 2.2 mph3.5 kmh 29.61 in1002.7 mb 0.00 in0.0 mm 0.00 in0.0 mm 0.13 in3.3 mm
10:00 PM 36.5°F2.5°C 33.9°F1.1°C 90% 1.6 mph W2.6 kmh W 2.2 mph3.5 kmh 29.62 in1003.0 mb 0.00 in0.0 mm 0.00 in0.0 mm 0.13 in3.3 mm
10:02 PM 36.5°F2.5°C 33.9°F1.1°C 90% 0.7 mph W1.1 kmh W 1.6 mph2.6 kmh 29.62 in1003.0 mb 0.00 in0.0 mm 0.00 in0.0 mm 0.13 in3.3 mm
10:04 PM 36.5°F2.5°C 33.9°F1.1°C 90% 1.6 mph W2.6 kmh W 2.2 mph3.5 kmh 29.62 in1003.0 mb 0.00 in0.0 mm 0.00 in0.0 mm 0.13 in3.3 mm
10:06 PM 36.5°F2.5°C 33.9°F1.1°C 90% 1.6 mph W2.6 kmh W 2.2 mph3.5 kmh 29.62 in1003.0 mb 0.00 in0.0 mm 0.00 in0.0 mm 0.13 in3.3 mm
10:08 PM 36.5°F2.5°C 33.9°F1.1°C 90% 2.2 mph WNW3.5 kmh WNW 3.1 mph5.0 kmh 29.62 in1003.0 mb 0.00 in0.0 mm 0.00 in0.0 mm 0.13 in3.3 mm
10:10 PM 36.5°F2.5°C 33.9°F1.1°C 90% 2.2 mph W3.5 kmh W 3.1 mph5.0 kmh 29.62 in1003.0 mb 0.00 in0.0 mm 0.00 in0.0 mm 0.13 in3.3 mm
10:12 PM 36.3°F2.4°C 33.7°F0.9°C 90% 1.6 mph W2.6 kmh W 2.2 mph3.5 kmh 29.62 in1003.0 mb 0.00 in0.0 mm 0.00 in0.0 mm 0.13 in3.3 mm
10:14 PM 36.3°F2.4°C 33.7°F0.9°C 90% 1.6 mph W2.6 kmh W 2.2 mph3.5 kmh 29.63 in1003.4 mb 0.00 in0.0 mm 0.00 in0.0 mm 0.13 in3.3 mm
10:16 PM 36.3°F2.4°C 33.7°F0.9°C 90% 1.6 mph NW2.6 kmh NW 2.2 mph3.5 kmh 29.62 in1003.0 mb 0.00 in0.0 mm 0.00 in0.0 mm 0.13 in3.3 mm
10:18 PM 36.3°F2.4°C 33.7°F0.9°C 90% 1.6 mph W2.6 kmh W 2.2 mph3.5 kmh 29.63 in1003.4 mb 0.00 in0.0 mm 0.00 in0.0 mm 0.13 in3.3 mm
10:20 PM 36.3°F2.4°C 33.7°F0.9°C 90% 1.6 mph W2.6 kmh W 2.2 mph3.5 kmh 29.62 in1003.0 mb 0.00 in0.0 mm 0.00 in0.0 mm 0.13 in3.3 mm
10:22 PM 36.3°F2.4°C 33.7°F0.9°C 90% 1.6 mph W2.6 kmh W 2.2 mph3.5 kmh 29.63 in1003.4 mb 0.00 in0.0 mm 0.00 in0.0 mm 0.13 in3.3 mm
10:24 PM 36.3°F2.4°C 33.7°F0.9°C 90% 0.7 mph W1.1 kmh W 1.6 mph2.6 kmh 29.63 in1003.4 mb 0.00 in0.0 mm 0.00 in0.0 mm 0.13 in3.3 mm
10:26 PM 36.3°F2.4°C 33.7°F0.9°C 90% 2.2 mph NW3.5 kmh NW 3.1 mph5.0 kmh 29.62 in1003.0 mb 0.00 in0.0 mm 0.00 in0.0 mm 0.13 in3.3 mm
10:28 PM 36.3°F2.4°C 33.7°F0.9°C 90% 2.2 mph NW3.5 kmh NW 3.1 mph5.0 kmh 29.63 in1003.4 mb 0.00 in0.0 mm 0.00 in0.0 mm 0.13 in3.3 mm
10:30 PM 36.3°F2.4°C 33.7°F0.9°C 90% 1.6 mph W2.6 kmh W 2.2 mph3.5 kmh 29.63 in1003.4 mb 0.00 in0.0 mm 0.00 in0.0 mm 0.13 in3.3 mm
10:32 PM 36.3°F2.4°C 33.7°F0.9°C 90% 1.6 mph NW2.6 kmh NW 2.2 mph3.5 kmh 29.63 in1003.4 mb 0.00 in0.0 mm 0.00 in0.0 mm 0.13 in3.3 mm
10:34 PM 36.3°F2.4°C 33.7°F0.9°C 90% 1.6 mph W2.6 kmh W 2.2 mph3.5 kmh 29.63 in1003.4 mb 0.00 in0.0 mm 0.00 in0.0 mm 0.13 in3.3 mm
10:36 PM 36.3°F2.4°C 33.7°F0.9°C 90% 2.2 mph W3.5 kmh W 3.1 mph5.0 kmh 29.63 in1003.4 mb 0.00 in0.0 mm 0.00 in0.0 mm 0.13 in3.3 mm
10:38 PM 36.3°F2.4°C 33.7°F0.9°C 90% 1.6 mph W2.6 kmh W 2.2 mph3.5 kmh 29.63 in1003.4 mb 0.00 in0.0 mm 0.00 in0.0 mm 0.13 in3.3 mm
10:40 PM 36.3°F2.4°C 33.7°F0.9°C 90% 1.6 mph W2.6 kmh W 2.2 mph3.5 kmh 29.63 in1003.4 mb 0.00 in0.0 mm 0.00 in0.0 mm 0.13 in3.3 mm
10:42 PM 36.3°F2.4°C 33.7°F0.9°C 90% 1.6 mph W2.6 kmh W 2.2 mph3.5 kmh 29.63 in1003.4 mb 0.01 in0.3 mm 0.35 in8.9 mm 0.14 in3.6 mm
10:44 PM 36.3°F2.4°C 33.7°F0.9°C 90% 1.6 mph W2.6 kmh W 3.1 mph5.0 kmh 29.63 in1003.4 mb 0.01 in0.3 mm 0.00 in0.0 mm 0.14 in3.6 mm
10:46 PM 36.3°F2.4°C 33.7°F0.9°C 90% 1.6 mph W2.6 kmh W 2.2 mph3.5 kmh 29.63 in1003.4 mb 0.01 in0.3 mm 0.00 in0.0 mm 0.14 in3.6 mm
10:48 PM 36.3°F2.4°C 33.7°F0.9°C 90% 2.2 mph W3.5 kmh W 3.1 mph5.0 kmh 29.63 in1003.4 mb 0.01 in0.3 mm 0.00 in0.0 mm 0.14 in3.6 mm
10:50 PM 36.3°F2.4°C 33.7°F0.9°C 90% 1.6 mph W2.6 kmh W 2.2 mph3.5 kmh 29.64 in1003.7 mb 0.01 in0.3 mm 0.00 in0.0 mm 0.14 in3.6 mm
10:52 PM 36.3°F2.4°C 33.7°F0.9°C 90% 2.2 mph W3.5 kmh W 3.1 mph5.0 kmh 29.64 in1003.7 mb 0.01 in0.3 mm 0.00 in0.0 mm 0.14 in3.6 mm
10:54 PM 36.3°F2.4°C 33.7°F0.9°C 90% 1.6 mph W2.6 kmh W 2.2 mph3.5 kmh 29.63 in1003.4 mb 0.01 in0.3 mm 0.00 in0.0 mm 0.14 in3.6 mm
10:57 PM 36.3°F2.4°C 33.7°F0.9°C 90% 1.6 mph W2.6 kmh W 2.2 mph3.5 kmh 29.64 in1003.7 mb 0.01 in0.3 mm 0.00 in0.0 mm 0.14 in3.6 mm
10:59 PM 36.1°F2.3°C 33.5°F0.8°C 90% 1.6 mph W2.6 kmh W 2.2 mph3.5 kmh 29.64 in1003.7 mb 0.01 in0.3 mm 0.00 in0.0 mm 0.14 in3.6 mm
11:01 PM 36.1°F2.3°C 33.5°F0.8°C 90% 2.2 mph W3.5 kmh W 3.1 mph5.0 kmh 29.64 in1003.7 mb 0.01 in0.3 mm 0.00 in0.0 mm 0.14 in3.6 mm
11:03 PM 36.1°F2.3°C 33.5°F0.8°C 90% 1.6 mph W2.6 kmh W 2.2 mph3.5 kmh 29.64 in1003.7 mb 0.01 in0.3 mm 0.00 in0.0 mm 0.14 in3.6 mm
11:05 PM 36.1°F2.3°C 33.5°F0.8°C 90% 2.2 mph W3.5 kmh W 3.1 mph5.0 kmh 29.64 in1003.7 mb 0.01 in0.3 mm 0.00 in0.0 mm 0.14 in3.6 mm
11:07 PM 36.1°F2.3°C 33.5°F0.8°C 90% 0.7 mph W1.1 kmh W 2.2 mph3.5 kmh 29.64 in1003.7 mb 0.01 in0.3 mm 0.00 in0.0 mm 0.14 in3.6 mm
11:09 PM 36.1°F2.3°C 33.5°F0.8°C 90% 1.6 mph W2.6 kmh W 3.1 mph5.0 kmh 29.65 in1004.1 mb 0.01 in0.3 mm 0.00 in0.0 mm 0.14 in3.6 mm
11:11 PM 36.1°F2.3°C 33.5°F0.8°C 90% 0.7 mph W1.1 kmh W 2.2 mph3.5 kmh 29.64 in1003.7 mb 0.02 in0.5 mm 0.35 in8.9 mm 0.15 in3.8 mm
11:13 PM 36.1°F2.3°C 33.5°F0.8°C 90% 1.6 mph W2.6 kmh W 3.1 mph5.0 kmh 29.65 in1004.1 mb 0.02 in0.5 mm 0.00 in0.0 mm 0.15 in3.8 mm
11:15 PM 36.1°F2.3°C 33.5°F0.8°C 90% 1.6 mph W2.6 kmh W 2.2 mph3.5 kmh 29.64 in1003.7 mb 0.02 in0.5 mm 0.00 in0.0 mm 0.15 in3.8 mm
11:17 PM 36.1°F2.3°C 33.5°F0.8°C 90% 0.7 mph W1.1 kmh W 1.6 mph2.6 kmh 29.65 in1004.1 mb 0.02 in0.5 mm 0.00 in0.0 mm 0.15 in3.8 mm
11:19 PM 36.1°F2.3°C 33.5°F0.8°C 90% 0.7 mph W1.1 kmh W 1.6 mph2.6 kmh 29.64 in1003.7 mb 0.02 in0.5 mm 0.00 in0.0 mm 0.15 in3.8 mm
11:21 PM 36.1°F2.3°C 33.5°F0.8°C 90% 0.7 mph W1.1 kmh W 1.6 mph2.6 kmh 29.65 in1004.1 mb 0.02 in0.5 mm 0.00 in0.0 mm 0.15 in3.8 mm
11:23 PM 36.0°F2.2°C 33.3°F0.7°C 90% 2.2 mph W3.5 kmh W 3.1 mph5.0 kmh 29.65 in1004.1 mb 0.02 in0.5 mm 0.00 in0.0 mm 0.15 in3.8 mm
11:25 PM 36.0°F2.2°C 33.3°F0.7°C 90% 0.7 mph W1.1 kmh W 0.7 mph1.1 kmh 29.65 in1004.1 mb 0.02 in0.5 mm 0.00 in0.0 mm 0.15 in3.8 mm
11:27 PM 36.1°F2.3°C 33.5°F0.8°C 90% 0.7 mph W1.1 kmh W 2.2 mph3.5 kmh 29.65 in1004.1 mb 0.02 in0.5 mm 0.00 in0.0 mm 0.15 in3.8 mm
11:29 PM 36.0°F2.2°C 33.3°F0.7°C 90% 1.6 mph W2.6 kmh W 1.6 mph2.6 kmh 29.65 in1004.1 mb 0.02 in0.5 mm 0.00 in0.0 mm 0.15 in3.8 mm
11:31 PM 36.0°F2.2°C 33.3°F0.7°C 90% 0.7 mph W1.1 kmh W 1.6 mph2.6 kmh 29.65 in1004.1 mb 0.02 in0.5 mm 0.00 in0.0 mm 0.15 in3.8 mm
11:33 PM 36.0°F2.2°C 33.3°F0.7°C 90% 0.7 mph W1.1 kmh W 1.6 mph2.6 kmh 29.65 in1004.1 mb 0.02 in0.5 mm 0.00 in0.0 mm 0.15 in3.8 mm
11:35 PM 36.0°F2.2°C 33.3°F0.7°C 90% 1.6 mph W2.6 kmh W 2.2 mph3.5 kmh 29.65 in1004.1 mb 0.02 in0.5 mm 0.00 in0.0 mm 0.15 in3.8 mm
11:37 PM 36.0°F2.2°C 33.3°F0.7°C 90% 0.7 mph W1.1 kmh W 1.6 mph2.6 kmh 29.66 in1004.4 mb 0.02 in0.5 mm 0.00 in0.0 mm 0.15 in3.8 mm
11:39 PM 36.0°F2.2°C 33.3°F0.7°C 90% 1.6 mph W2.6 kmh W 2.2 mph3.5 kmh 29.66 in1004.4 mb 0.02 in0.5 mm 0.00 in0.0 mm 0.15 in3.8 mm
11:41 PM 36.0°F2.2°C 33.3°F0.7°C 90% 1.6 mph WSW2.6 kmh WSW 2.2 mph3.5 kmh 29.65 in1004.1 mb 0.01 in0.3 mm 0.00 in0.0 mm 0.15 in3.8 mm
11:43 PM 36.0°F2.2°C 33.3°F0.7°C 90% 0.7 mph W1.1 kmh W 1.6 mph2.6 kmh 29.66 in1004.4 mb 0.01 in0.3 mm 0.00 in0.0 mm 0.15 in3.8 mm
11:45 PM 36.0°F2.2°C 33.3°F0.7°C 90% 0.7 mph W1.1 kmh W 1.6 mph2.6 kmh 29.66 in1004.4 mb 0.01 in0.3 mm 0.00 in0.0 mm 0.15 in3.8 mm
11:47 PM 35.8°F2.1°C 33.1°F0.6°C 90% 1.6 mph W2.6 kmh W 2.2 mph3.5 kmh 29.65 in1004.1 mb 0.01 in0.3 mm 0.00 in0.0 mm 0.15 in3.8 mm
11:49 PM 35.8°F2.1°C 33.1°F0.6°C 90% 1.6 mph W2.6 kmh W 3.1 mph5.0 kmh 29.66 in1004.4 mb 0.01 in0.3 mm 0.00 in0.0 mm 0.15 in3.8 mm
11:51 PM 35.8°F2.1°C 33.1°F0.6°C 90% 2.2 mph W3.5 kmh W 3.1 mph5.0 kmh 29.66 in1004.4 mb 0.01 in0.3 mm 0.00 in0.0 mm 0.15 in3.8 mm
11:53 PM 35.8°F2.1°C 33.1°F0.6°C 90% 3.1 mph W5.0 kmh W 3.8 mph6.1 kmh 29.66 in1004.4 mb 0.01 in0.3 mm 0.00 in0.0 mm 0.15 in3.8 mm
11:55 PM 35.8°F2.1°C 33.1°F0.6°C 90% 2.2 mph W3.5 kmh W 3.1 mph5.0 kmh 29.66 in1004.4 mb 0.01 in0.3 mm 0.00 in0.0 mm 0.15 in3.8 mm
11:57 PM 35.8°F2.1°C 33.1°F0.6°C 90% 1.6 mph W2.6 kmh W 2.2 mph3.5 kmh 29.66 in1004.4 mb 0.01 in0.3 mm 0.00 in0.0 mm 0.15 in3.8 mm
11:59 PM 35.8°F2.1°C 33.1°F0.6°C 90% 1.6 mph W2.6 kmh W 2.2 mph3.5 kmh 29.67 in1004.7 mb 0.01 in0.3 mm 0.00 in0.0 mm 0.15 in3.8 mm